BOX620 EDDF-VVTS
Flight info
| Callsign | BOX620 |
|---|---|
| Flight time | 10h 48m |
| Altitude | 29000 |
| Route | SULUS7S/18 SULUS Z650 VEMUT DCT DITIS DCT ALAMU DCT BUDOP DCT IRLOX DCT OPT/N0489F310 DCT LUGEB DCT UDROS UM859 KARDE UL851 TBN UM11 REBLO DCT MATAL T916 SUBUT T923 ERLEV M11 RODAR A909 NINOP/N0488F330 A909 LEMOD N644 DI M875 DOMET G590 BBN R460 CEA L507 SUMSU/N0489F350 L507 BKK N506 ELMOP R468 SAPEN SAPEN5B |
| Aircraft | B77L/H-BOEING777200LREQUIPMENTSDE1E3FGHIJ1J3J4J5M1P2RWXY/LB1D1 |
Departure
| Time | 2026-05-07 14:39 |
|---|---|
| Airport | Frankfurt Main Airport (EDDF) |
Arrival
| Time | 2026-05-08 01:27 |
|---|---|
| Airport | Tan Son Nhat International Airport (VVTS) |
| Time | Latitude | Longitude | Altitude | Speed | Heading |
|---|---|---|---|---|---|
| 2026-05-07 13:31 | 50.03812 | 8.53499 | 356 ft | 0 kts | 340° |
| 2026-05-07 14:01 | 50.03820 | 8.53495 | 348 ft | 0 kts | 340° |
| 2026-05-07 14:28 | 50.03810 | 8.53501 | 351 ft | 4 kts | 340° |
| 2026-05-07 14:28 | 50.03784 | 8.53515 | 351 ft | 4 kts | 340° |
| 2026-05-07 14:28 | 50.03763 | 8.53528 | 356 ft | 4 kts | 341° |
| 2026-05-07 14:28 | 50.03737 | 8.53536 | 358 ft | 4 kts | 7° |
| 2026-05-07 14:29 | 50.03714 | 8.53522 | 357 ft | 4 kts | 52° |
| 2026-05-07 14:29 | 50.03703 | 8.53486 | 353 ft | 4 kts | 78° |
| 2026-05-07 14:29 | 50.03698 | 8.53446 | 354 ft | 3 kts | 71° |
| 2026-05-07 14:29 | 50.03697 | 8.53442 | 355 ft | 1 kts | 70° |
| 2026-05-07 14:33 | 50.03699 | 8.53449 | 353 ft | 1 kts | 70° |
| 2026-05-07 14:34 | 50.03702 | 8.53465 | 357 ft | 1 kts | 74° |
| 2026-05-07 14:34 | 50.03707 | 8.53515 | 357 ft | 9 kts | 91° |
| 2026-05-07 14:34 | 50.03659 | 8.53561 | 355 ft | 9 kts | 195° |
| 2026-05-07 14:34 | 50.03621 | 8.53481 | 356 ft | 9 kts | 246° |
| 2026-05-07 14:35 | 50.03597 | 8.53386 | 349 ft | 9 kts | 250° |
| 2026-05-07 14:35 | 50.03574 | 8.53290 | 355 ft | 9 kts | 249° |
| 2026-05-07 14:35 | 50.03546 | 8.53174 | 354 ft | 15 kts | 249° |
| 2026-05-07 14:35 | 50.03509 | 8.53018 | 350 ft | 15 kts | 250° |
| 2026-05-07 14:36 | 50.03469 | 8.52864 | 337 ft | 15 kts | 246° |
| 2026-05-07 14:36 | 50.03429 | 8.52711 | 335 ft | 15 kts | 249° |
| 2026-05-07 14:36 | 50.03396 | 8.52601 | 334 ft | 7 kts | 213° |
| 2026-05-07 14:36 | 50.03365 | 8.52596 | 336 ft | 0 kts | 182° |
| 2026-05-07 14:37 | 50.03362 | 8.52595 | 337 ft | 5 kts | 182° |
| 2026-05-07 14:38 | 50.03186 | 8.52593 | 337 ft | 57 kts | 179° |
| 2026-05-07 14:38 | 50.02526 | 8.52602 | 336 ft | 129 kts | 180° |
| 2026-05-07 14:38 | 50.01410 | 8.52614 | 338 ft | 188 kts | 179° |
| 2026-05-07 14:38 | 50.00013 | 8.52639 | 623 ft | 203 kts | 181° |
| 2026-05-07 14:39 | 49.98569 | 8.52645 | 1117 ft | 209 kts | 182° |
| 2026-05-07 14:39 | 49.97104 | 8.52856 | 1589 ft | 218 kts | 160° |
| 2026-05-07 14:39 | 49.95895 | 8.54218 | 2033 ft | 218 kts | 121° |
| 2026-05-07 14:39 | 49.95185 | 8.56345 | 2312 ft | 227 kts | 116° |
| 2026-05-07 14:40 | 49.94445 | 8.58543 | 2744 ft | 232 kts | 116° |
| 2026-05-07 14:40 | 49.93974 | 8.60956 | 2986 ft | 239 kts | 91° |
| 2026-05-07 14:40 | 49.93939 | 8.63619 | 3169 ft | 256 kts | 91° |
| 2026-05-07 14:40 | 49.93846 | 8.66456 | 3594 ft | 268 kts | 92° |
| 2026-05-07 14:41 | 49.93462 | 8.69302 | 3977 ft | 277 kts | 119° |
| 2026-05-07 14:41 | 49.92155 | 8.71482 | 4515 ft | 279 kts | 147° |
| 2026-05-07 14:41 | 49.90547 | 8.73126 | 5061 ft | 283 kts | 146° |
| 2026-05-07 14:41 | 49.88930 | 8.74900 | 5716 ft | 284 kts | 141° |
| 2026-05-07 14:42 | 49.87683 | 8.77243 | 6197 ft | 286 kts | 116° |
| 2026-05-07 14:42 | 49.86782 | 8.80026 | 6672 ft | 292 kts | 118° |
| 2026-05-07 14:42 | 49.85808 | 8.82798 | 7291 ft | 293 kts | 119° |
| 2026-05-07 14:42 | 49.84805 | 8.85564 | 7925 ft | 295 kts | 120° |
| 2026-05-07 14:43 | 49.83789 | 8.88353 | 8538 ft | 298 kts | 120° |
| 2026-05-07 14:43 | 49.82765 | 8.91165 | 9157 ft | 301 kts | 120° |
| 2026-05-07 14:43 | 49.81733 | 8.94002 | 9796 ft | 303 kts | 120° |
| 2026-05-07 14:43 | 49.80691 | 8.96866 | 10339 ft | 307 kts | 120° |
| 2026-05-07 14:44 | 49.79612 | 8.99830 | 10514 ft | 326 kts | 120° |
| 2026-05-07 14:44 | 49.78467 | 9.02972 | 10690 ft | 344 kts | 120° |
| 2026-05-07 14:44 | 49.77256 | 9.06288 | 10847 ft | 363 kts | 120° |
| 2026-05-07 14:44 | 49.76038 | 9.09798 | 11064 ft | 375 kts | 112° |
| 2026-05-07 14:45 | 49.75266 | 9.13715 | 11420 ft | 385 kts | 102° |
| 2026-05-07 14:45 | 49.74704 | 9.17789 | 12069 ft | 388 kts | 101° |
| 2026-05-07 14:45 | 49.74124 | 9.21885 | 12798 ft | 391 kts | 102° |
| 2026-05-07 14:45 | 49.73497 | 9.25982 | 13456 ft | 394 kts | 103° |
| 2026-05-07 14:46 | 49.72838 | 9.30122 | 14071 ft | 398 kts | 103° |
| 2026-05-07 14:46 | 49.72161 | 9.34293 | 14624 ft | 402 kts | 103° |
| 2026-05-07 14:46 | 49.71474 | 9.38497 | 15174 ft | 405 kts | 104° |
| 2026-05-07 14:46 | 49.70779 | 9.42746 | 15731 ft | 409 kts | 104° |
| 2026-05-07 14:47 | 49.70077 | 9.47019 | 16282 ft | 413 kts | 104° |
| 2026-05-07 14:47 | 49.69366 | 9.51350 | 16831 ft | 417 kts | 104° |
| 2026-05-07 14:47 | 49.68649 | 9.55705 | 17385 ft | 420 kts | 104° |
| 2026-05-07 14:47 | 49.67926 | 9.60086 | 17937 ft | 423 kts | 104° |
| 2026-05-07 14:48 | 49.67440 | 9.63023 | 18305 ft | 425 kts | 104° |
| 2026-05-07 14:48 | 49.67024 | 9.67531 | 18593 ft | 429 kts | 86° |
| 2026-05-07 14:48 | 49.67620 | 9.72013 | 18962 ft | 426 kts | 70° |
| 2026-05-07 14:48 | 49.68546 | 9.76389 | 19308 ft | 432 kts | 72° |
| 2026-05-07 14:49 | 49.69360 | 9.80883 | 19763 ft | 435 kts | 74° |
| 2026-05-07 14:49 | 49.70134 | 9.85391 | 20298 ft | 436 kts | 74° |
| 2026-05-07 14:49 | 49.70918 | 9.89932 | 20798 ft | 438 kts | 74° |
| 2026-05-07 14:49 | 49.71773 | 9.94465 | 21229 ft | 439 kts | 68° |
| 2026-05-07 14:50 | 49.73242 | 9.98586 | 21536 ft | 438 kts | 52° |
| 2026-05-07 14:50 | 49.75096 | 10.02371 | 21907 ft | 443 kts | 51° |
| 2026-05-07 14:50 | 49.76960 | 10.06185 | 22392 ft | 445 kts | 52° |
| 2026-05-07 14:50 | 49.78802 | 10.10030 | 22929 ft | 446 kts | 52° |
| 2026-05-07 14:51 | 49.80613 | 10.13880 | 23382 ft | 449 kts | 53° |
| 2026-05-07 14:51 | 49.82463 | 10.17867 | 23776 ft | 452 kts | 53° |
| 2026-05-07 14:51 | 49.84295 | 10.21847 | 24127 ft | 455 kts | 53° |
| 2026-05-07 14:51 | 49.86132 | 10.25855 | 24532 ft | 457 kts | 53° |
| 2026-05-07 14:52 | 49.87948 | 10.29826 | 24912 ft | 459 kts | 53° |
| 2026-05-07 14:52 | 49.89795 | 10.33870 | 25307 ft | 461 kts | 53° |
| 2026-05-07 14:52 | 49.91656 | 10.37948 | 25655 ft | 463 kts | 54° |
| 2026-05-07 14:52 | 49.93519 | 10.42035 | 26023 ft | 465 kts | 54° |
| 2026-05-07 14:53 | 49.95390 | 10.46145 | 26371 ft | 467 kts | 54° |
| 2026-05-07 14:53 | 49.97267 | 10.50273 | 26776 ft | 468 kts | 53° |
| 2026-05-07 14:53 | 49.99151 | 10.54424 | 27197 ft | 468 kts | 53° |
| 2026-05-07 14:53 | 50.01019 | 10.58545 | 27797 ft | 465 kts | 53° |
| 2026-05-07 14:54 | 50.02885 | 10.62667 | 28180 ft | 466 kts | 54° |
| 2026-05-07 14:54 | 50.04741 | 10.66826 | 28353 ft | 468 kts | 57° |
| 2026-05-07 14:54 | 50.06104 | 10.71458 | 28429 ft | 477 kts | 76° |
| 2026-05-07 14:54 | 50.06447 | 10.76603 | 28673 ft | 482 kts | 92° |
| 2026-05-07 14:55 | 50.05855 | 10.81731 | 28982 ft | 483 kts | 107° |
| 2026-05-07 14:55 | 50.04751 | 10.86690 | 29013 ft | 487 kts | 108° |
| 2026-05-07 14:55 | 50.02535 | 10.96607 | 29023 ft | 487 kts | 108° |
| 2026-05-07 14:56 | 50.00402 | 11.06562 | 29034 ft | 483 kts | 107° |
| 2026-05-07 14:56 | 49.98314 | 11.16433 | 29028 ft | 479 kts | 107° |
| 2026-05-07 14:57 | 49.96225 | 11.26228 | 29026 ft | 476 kts | 107° |
| 2026-05-07 14:57 | 49.94133 | 11.35992 | 29028 ft | 477 kts | 107° |
| 2026-05-07 14:58 | 49.92093 | 11.45812 | 29042 ft | 478 kts | 104° |
| 2026-05-07 14:58 | 49.90352 | 11.55785 | 29022 ft | 480 kts | 103° |
| 2026-05-07 14:59 | 49.88565 | 11.65699 | 29011 ft | 481 kts | 103° |
| 2026-05-07 14:59 | 49.87398 | 11.75920 | 29011 ft | 480 kts | 95° |
| 2026-05-07 15:00 | 49.86562 | 11.86204 | 29008 ft | 481 kts | 96° |
| 2026-05-07 15:00 | 49.85650 | 11.96548 | 29009 ft | 486 kts | 96° |
| 2026-05-07 15:01 | 49.84708 | 12.06896 | 29006 ft | 489 kts | 97° |
| 2026-05-07 15:01 | 49.83738 | 12.17375 | 29024 ft | 493 kts | 97° |
| 2026-05-07 15:02 | 49.82759 | 12.27915 | 29023 ft | 495 kts | 97° |
| 2026-05-07 15:02 | 49.81794 | 12.38499 | 29005 ft | 497 kts | 99° |
| 2026-05-07 15:03 | 49.80034 | 12.48884 | 29009 ft | 499 kts | 111° |
| 2026-05-07 15:03 | 49.77093 | 12.58596 | 29031 ft | 499 kts | 118° |
| 2026-05-07 15:04 | 49.73911 | 12.68068 | 29005 ft | 499 kts | 118° |
| 2026-05-07 15:04 | 49.70734 | 12.77612 | 29016 ft | 499 kts | 118° |
| 2026-05-07 15:05 | 49.67571 | 12.87158 | 29009 ft | 499 kts | 118° |
| 2026-05-07 15:05 | 49.64399 | 12.96713 | 29009 ft | 500 kts | 119° |
| 2026-05-07 15:06 | 49.61221 | 13.06252 | 29004 ft | 500 kts | 119° |
| 2026-05-07 15:06 | 49.58031 | 13.15786 | 29003 ft | 499 kts | 119° |
| 2026-05-07 15:07 | 49.54835 | 13.25299 | 29005 ft | 499 kts | 119° |
| 2026-05-07 15:07 | 49.51633 | 13.34795 | 29009 ft | 499 kts | 119° |
| 2026-05-07 15:08 | 49.48446 | 13.44210 | 29006 ft | 499 kts | 119° |
| 2026-05-07 15:08 | 49.45234 | 13.53664 | 28983 ft | 499 kts | 120° |
| 2026-05-07 15:09 | 49.42014 | 13.63111 | 28993 ft | 497 kts | 120° |
| 2026-05-07 15:09 | 49.38800 | 13.72498 | 28996 ft | 496 kts | 121° |
| 2026-05-07 15:10 | 49.35587 | 13.81852 | 28981 ft | 495 kts | 121° |
| 2026-05-07 15:10 | 49.32375 | 13.91170 | 28987 ft | 494 kts | 121° |
| 2026-05-07 15:11 | 49.29181 | 14.00403 | 28980 ft | 492 kts | 121° |
| 2026-05-07 15:11 | 49.25960 | 14.09675 | 28987 ft | 492 kts | 122° |
| 2026-05-07 15:12 | 49.22746 | 14.18896 | 28974 ft | 491 kts | 122° |
| 2026-05-07 15:12 | 49.19521 | 14.28118 | 28983 ft | 491 kts | 122° |
| 2026-05-07 15:13 | 49.16299 | 14.37300 | 28979 ft | 489 kts | 123° |
| 2026-05-07 15:13 | 49.13085 | 14.46427 | 28973 ft | 487 kts | 123° |
| 2026-05-07 15:14 | 49.09889 | 14.55466 | 28971 ft | 485 kts | 123° |
| 2026-05-07 15:14 | 49.06678 | 14.64519 | 28975 ft | 484 kts | 123° |
| 2026-05-07 15:15 | 49.03465 | 14.73545 | 28964 ft | 483 kts | 124° |
| 2026-05-07 15:15 | 49.00257 | 14.82526 | 28962 ft | 482 kts | 123° |
| 2026-05-07 15:16 | 48.97038 | 14.91508 | 28964 ft | 482 kts | 123° |
| 2026-05-07 15:16 | 48.93840 | 15.00400 | 28962 ft | 482 kts | 123° |
| 2026-05-07 15:17 | 48.90611 | 15.09354 | 28932 ft | 483 kts | 124° |
| 2026-05-07 15:17 | 48.87434 | 15.18353 | 28957 ft | 484 kts | 123° |
| 2026-05-07 15:18 | 48.84350 | 15.27463 | 28941 ft | 485 kts | 122° |
| 2026-05-07 15:18 | 48.81265 | 15.36575 | 28948 ft | 485 kts | 122° |
| 2026-05-07 15:19 | 48.78169 | 15.45627 | 28933 ft | 485 kts | 123° |
| 2026-05-07 15:19 | 48.75053 | 15.54678 | 28940 ft | 484 kts | 124° |
| 2026-05-07 15:20 | 48.71935 | 15.63692 | 28949 ft | 482 kts | 124° |
| 2026-05-07 15:20 | 48.68814 | 15.72688 | 28949 ft | 482 kts | 124° |
| 2026-05-07 15:21 | 48.65693 | 15.81650 | 28951 ft | 481 kts | 124° |
| 2026-05-07 15:21 | 48.62568 | 15.90597 | 28937 ft | 480 kts | 124° |
| 2026-05-07 15:22 | 48.59464 | 15.99452 | 28947 ft | 479 kts | 124° |
| 2026-05-07 15:22 | 48.56336 | 16.08345 | 28951 ft | 479 kts | 124° |
| 2026-05-07 15:23 | 48.53207 | 16.17210 | 28954 ft | 479 kts | 124° |
| 2026-05-07 15:23 | 48.50067 | 16.26071 | 28962 ft | 478 kts | 124° |
| 2026-05-07 15:24 | 48.46919 | 16.34931 | 28959 ft | 478 kts | 124° |
| 2026-05-07 15:24 | 48.43771 | 16.43758 | 28957 ft | 478 kts | 124° |
| 2026-05-07 15:25 | 48.40639 | 16.52515 | 28962 ft | 478 kts | 124° |
| 2026-05-07 15:25 | 48.37476 | 16.61327 | 28937 ft | 478 kts | 125° |
| 2026-05-07 15:26 | 48.34312 | 16.70115 | 28956 ft | 478 kts | 125° |
| 2026-05-07 15:26 | 48.31132 | 16.78910 | 28974 ft | 479 kts | 125° |
| 2026-05-07 15:27 | 48.27939 | 16.87714 | 28955 ft | 480 kts | 125° |
| 2026-05-07 15:27 | 48.24726 | 16.96545 | 28964 ft | 481 kts | 125° |
| 2026-05-07 15:28 | 48.21530 | 17.05299 | 28968 ft | 482 kts | 125° |
| 2026-05-07 15:28 | 48.18296 | 17.14131 | 28975 ft | 483 kts | 125° |
| 2026-05-07 15:29 | 48.15053 | 17.22956 | 28964 ft | 482 kts | 126° |
| 2026-05-07 15:29 | 48.11814 | 17.31744 | 28918 ft | 481 kts | 126° |
| 2026-05-07 15:30 | 48.08576 | 17.40498 | 28960 ft | 481 kts | 126° |
| 2026-05-07 15:30 | 48.05330 | 17.49240 | 28970 ft | 481 kts | 126° |
| 2026-05-07 15:31 | 48.02624 | 17.56507 | 28970 ft | 481 kts | 126° |
| 2026-05-07 15:31 | 47.99357 | 17.65257 | 28976 ft | 482 kts | 126° |
| 2026-05-07 15:32 | 47.96085 | 17.73991 | 28974 ft | 482 kts | 126° |
| 2026-05-07 15:32 | 47.92802 | 17.82725 | 28981 ft | 483 kts | 126° |
| 2026-05-07 15:33 | 47.89501 | 17.91479 | 28983 ft | 484 kts | 126° |
| 2026-05-07 15:33 | 47.86196 | 18.00215 | 28985 ft | 485 kts | 126° |
| 2026-05-07 15:34 | 47.82873 | 18.08969 | 28983 ft | 486 kts | 126° |
| 2026-05-07 15:34 | 47.79554 | 18.17685 | 28991 ft | 488 kts | 126° |
| 2026-05-07 15:35 | 47.76199 | 18.26474 | 28995 ft | 489 kts | 126° |
| 2026-05-07 15:35 | 47.72895 | 18.35375 | 28990 ft | 494 kts | 122° |
| 2026-05-07 15:36 | 47.70015 | 18.44648 | 28983 ft | 495 kts | 121° |
| 2026-05-07 15:36 | 47.67134 | 18.53947 | 28996 ft | 496 kts | 121° |
| 2026-05-07 15:37 | 47.64234 | 18.63211 | 28990 ft | 499 kts | 121° |
| 2026-05-07 15:37 | 47.61286 | 18.72564 | 28988 ft | 501 kts | 121° |
| 2026-05-07 15:38 | 47.58327 | 18.81906 | 29006 ft | 501 kts | 121° |
| 2026-05-07 15:38 | 47.55357 | 18.91252 | 28984 ft | 501 kts | 121° |
| 2026-05-07 15:39 | 47.52383 | 19.00574 | 29029 ft | 501 kts | 121° |
| 2026-05-07 15:39 | 47.49401 | 19.09883 | 29007 ft | 505 kts | 121° |
| 2026-05-07 15:40 | 47.46392 | 19.19250 | 28988 ft | 503 kts | 121° |
| 2026-05-07 15:40 | 47.43384 | 19.28585 | 28991 ft | 502 kts | 121° |
| 2026-05-07 15:41 | 47.40383 | 19.37857 | 28990 ft | 499 kts | 121° |
| 2026-05-07 15:41 | 47.37386 | 19.47081 | 28965 ft | 498 kts | 121° |
| 2026-05-07 15:42 | 47.34382 | 19.56292 | 28988 ft | 498 kts | 121° |
| 2026-05-07 15:42 | 47.31368 | 19.65498 | 29010 ft | 499 kts | 121° |
| 2026-05-07 15:43 | 47.28339 | 19.74719 | 29009 ft | 501 kts | 121° |
| 2026-05-07 15:43 | 47.25308 | 19.83916 | 28983 ft | 503 kts | 120° |
| 2026-05-07 15:44 | 47.22247 | 19.93176 | 29013 ft | 503 kts | 120° |
| 2026-05-07 15:44 | 47.19181 | 20.02415 | 29019 ft | 502 kts | 121° |
| 2026-05-07 15:45 | 47.16106 | 20.11648 | 29022 ft | 502 kts | 121° |
| 2026-05-07 15:45 | 47.13029 | 20.20850 | 29003 ft | 502 kts | 120° |
| 2026-05-07 15:46 | 47.08406 | 20.34619 | 29023 ft | 501 kts | 120° |
| 2026-05-07 15:47 | 47.05334 | 20.43727 | 29022 ft | 501 kts | 120° |
| 2026-05-07 15:47 | 47.02233 | 20.52888 | 29019 ft | 501 kts | 121° |
| 2026-05-07 15:48 | 46.99129 | 20.62026 | 29019 ft | 501 kts | 121° |
| 2026-05-07 15:48 | 46.96019 | 20.71153 | 29026 ft | 501 kts | 121° |
| 2026-05-07 15:49 | 46.92896 | 20.80281 | 29019 ft | 501 kts | 121° |
| 2026-05-07 15:49 | 46.89774 | 20.89378 | 29004 ft | 501 kts | 121° |
| 2026-05-07 15:50 | 46.86639 | 20.98480 | 29024 ft | 501 kts | 121° |
| 2026-05-07 15:50 | 46.83444 | 21.07516 | 29022 ft | 501 kts | 122° |
| 2026-05-07 15:51 | 46.80169 | 21.16508 | 29022 ft | 501 kts | 122° |
| 2026-05-07 15:51 | 46.76908 | 21.25439 | 29011 ft | 501 kts | 122° |
| 2026-05-07 15:52 | 46.73633 | 21.34427 | 29027 ft | 501 kts | 122° |
| 2026-05-07 15:52 | 46.70359 | 21.43403 | 29026 ft | 502 kts | 122° |
| 2026-05-07 15:53 | 46.67074 | 21.52380 | 29027 ft | 501 kts | 122° |
| 2026-05-07 15:53 | 46.63784 | 21.61341 | 29044 ft | 501 kts | 122° |
| 2026-05-07 15:54 | 46.60497 | 21.70259 | 29020 ft | 500 kts | 122° |
| 2026-05-07 15:54 | 46.57200 | 21.79176 | 29018 ft | 500 kts | 122° |
| 2026-05-07 15:55 | 46.53921 | 21.88014 | 29047 ft | 499 kts | 122° |
| 2026-05-07 15:55 | 46.50613 | 21.96900 | 29039 ft | 500 kts | 122° |
| 2026-05-07 15:56 | 46.47296 | 22.05783 | 29023 ft | 501 kts | 122° |
| 2026-05-07 15:56 | 46.43960 | 22.14686 | 29043 ft | 502 kts | 122° |
| 2026-05-07 15:57 | 46.40605 | 22.23609 | 29032 ft | 504 kts | 122° |
| 2026-05-07 15:57 | 46.37242 | 22.32526 | 29040 ft | 505 kts | 122° |
| 2026-05-07 15:58 | 46.33892 | 22.41383 | 29042 ft | 505 kts | 122° |
| 2026-05-07 15:58 | 46.30511 | 22.50291 | 29041 ft | 505 kts | 122° |
| 2026-05-07 15:59 | 46.27125 | 22.59181 | 29039 ft | 504 kts | 122° |
| 2026-05-07 15:59 | 46.23732 | 22.68061 | 29042 ft | 504 kts | 122° |
| 2026-05-07 16:00 | 46.20334 | 22.76924 | 29045 ft | 504 kts | 122° |
| 2026-05-07 16:00 | 46.16940 | 22.85749 | 29052 ft | 503 kts | 122° |
| 2026-05-07 16:01 | 46.13534 | 22.94576 | 29044 ft | 504 kts | 122° |
| 2026-05-07 16:01 | 46.10119 | 23.03398 | 29039 ft | 504 kts | 122° |
| 2026-05-07 16:02 | 46.06691 | 23.12226 | 29043 ft | 504 kts | 122° |
| 2026-05-07 16:02 | 46.03247 | 23.21064 | 29020 ft | 506 kts | 122° |
| 2026-05-07 16:03 | 45.99821 | 23.29826 | 29025 ft | 505 kts | 122° |
| 2026-05-07 16:03 | 45.96348 | 23.38684 | 29036 ft | 512 kts | 122° |
| 2026-05-07 16:04 | 45.92810 | 23.47673 | 29050 ft | 520 kts | 122° |
| 2026-05-07 16:04 | 45.89257 | 23.56676 | 29013 ft | 521 kts | 122° |
| 2026-05-07 16:05 | 45.85665 | 23.65750 | 29009 ft | 523 kts | 122° |
| 2026-05-07 16:05 | 45.82056 | 23.74837 | 29020 ft | 524 kts | 122° |
| 2026-05-07 16:06 | 45.78453 | 23.83879 | 29014 ft | 525 kts | 122° |
| 2026-05-07 16:06 | 45.74827 | 23.92947 | 29000 ft | 525 kts | 122° |
| 2026-05-07 16:07 | 45.71181 | 24.02031 | 29002 ft | 525 kts | 122° |
| 2026-05-07 16:07 | 45.67538 | 24.11083 | 29047 ft | 524 kts | 122° |
| 2026-05-07 16:08 | 45.63896 | 24.20105 | 29040 ft | 523 kts | 123° |
| 2026-05-07 16:08 | 45.60247 | 24.29110 | 29038 ft | 523 kts | 123° |
| 2026-05-07 16:09 | 45.56590 | 24.38105 | 29041 ft | 524 kts | 123° |
| 2026-05-07 16:09 | 45.52919 | 24.47108 | 29039 ft | 525 kts | 123° |
| 2026-05-07 16:10 | 45.49238 | 24.56102 | 29047 ft | 524 kts | 122° |
| 2026-05-07 16:10 | 45.45582 | 24.65011 | 29046 ft | 522 kts | 123° |
| 2026-05-07 16:11 | 45.41914 | 24.73921 | 29043 ft | 521 kts | 123° |
| 2026-05-07 16:11 | 45.38243 | 24.82810 | 29043 ft | 520 kts | 122° |
| 2026-05-07 16:12 | 45.34576 | 24.91663 | 29057 ft | 519 kts | 122° |
| 2026-05-07 16:12 | 45.30893 | 25.00523 | 29058 ft | 519 kts | 122° |
| 2026-05-07 16:13 | 45.27211 | 25.09351 | 29048 ft | 520 kts | 122° |
| 2026-05-07 16:13 | 45.23542 | 25.18122 | 29052 ft | 520 kts | 122° |
| 2026-05-07 16:14 | 45.19842 | 25.26942 | 29059 ft | 520 kts | 122° |
| 2026-05-07 16:14 | 45.16136 | 25.35746 | 29050 ft | 520 kts | 122° |
| 2026-05-07 16:15 | 45.12419 | 25.44550 | 29039 ft | 520 kts | 122° |
| 2026-05-07 16:15 | 45.09329 | 25.51847 | 29039 ft | 520 kts | 122° |
| 2026-05-07 16:16 | 45.05601 | 25.60626 | 29045 ft | 520 kts | 122° |
| 2026-05-07 16:16 | 45.01863 | 25.69401 | 29042 ft | 520 kts | 122° |
| 2026-05-07 16:17 | 44.98122 | 25.78157 | 29030 ft | 520 kts | 122° |
| 2026-05-07 16:17 | 44.94373 | 25.86904 | 29031 ft | 521 kts | 122° |
| 2026-05-07 16:18 | 44.90609 | 25.95660 | 29028 ft | 521 kts | 122° |
| 2026-05-07 16:18 | 44.86849 | 26.04377 | 29015 ft | 523 kts | 122° |
| 2026-05-07 16:19 | 44.83059 | 26.13137 | 29030 ft | 524 kts | 122° |
| 2026-05-07 16:19 | 44.79247 | 26.21924 | 29028 ft | 526 kts | 122° |
| 2026-05-07 16:20 | 44.75421 | 26.30713 | 29024 ft | 527 kts | 122° |
| 2026-05-07 16:20 | 44.71578 | 26.39514 | 29024 ft | 529 kts | 122° |
| 2026-05-07 16:21 | 44.67721 | 26.48323 | 29030 ft | 530 kts | 122° |
| 2026-05-07 16:21 | 44.63840 | 26.57157 | 29027 ft | 530 kts | 122° |
| 2026-05-07 16:22 | 44.59982 | 26.65910 | 29024 ft | 531 kts | 122° |
| 2026-05-07 16:22 | 44.56085 | 26.74727 | 29031 ft | 532 kts | 122° |
| 2026-05-07 16:23 | 44.52175 | 26.83547 | 29036 ft | 532 kts | 122° |
| 2026-05-07 16:23 | 44.48261 | 26.92347 | 29035 ft | 531 kts | 122° |
| 2026-05-07 16:24 | 44.44341 | 27.01133 | 29040 ft | 530 kts | 122° |
| 2026-05-07 16:24 | 44.40451 | 27.09826 | 29041 ft | 530 kts | 122° |
| 2026-05-07 16:25 | 44.36532 | 27.18558 | 29035 ft | 530 kts | 122° |
| 2026-05-07 16:25 | 44.32597 | 27.27297 | 29045 ft | 532 kts | 122° |
| 2026-05-07 16:26 | 44.28663 | 27.36009 | 29052 ft | 534 kts | 122° |
| 2026-05-07 16:26 | 44.24667 | 27.44831 | 29055 ft | 536 kts | 122° |
| 2026-05-07 16:27 | 44.20695 | 27.53574 | 29057 ft | 538 kts | 122° |
| 2026-05-07 16:27 | 44.16677 | 27.62391 | 29068 ft | 539 kts | 122° |
| 2026-05-07 16:28 | 44.12644 | 27.71215 | 29062 ft | 540 kts | 122° |
| 2026-05-07 16:28 | 44.08598 | 27.80039 | 29070 ft | 540 kts | 122° |
| 2026-05-07 16:29 | 44.04554 | 27.88832 | 29073 ft | 539 kts | 122° |
| 2026-05-07 16:29 | 44.00531 | 27.97554 | 29087 ft | 539 kts | 122° |
| 2026-05-07 16:30 | 43.96474 | 28.06320 | 29085 ft | 539 kts | 122° |
| 2026-05-07 16:30 | 43.92422 | 28.15054 | 29095 ft | 539 kts | 122° |
| 2026-05-07 16:31 | 43.88358 | 28.23785 | 29099 ft | 539 kts | 122° |
| 2026-05-07 16:31 | 43.84281 | 28.32516 | 29112 ft | 539 kts | 122° |
| 2026-05-07 16:32 | 43.80205 | 28.41220 | 29116 ft | 539 kts | 122° |
| 2026-05-07 16:32 | 43.76111 | 28.49939 | 29111 ft | 540 kts | 122° |
| 2026-05-07 16:33 | 43.72036 | 28.58590 | 29124 ft | 540 kts | 122° |
| 2026-05-07 16:33 | 43.67928 | 28.67283 | 29122 ft | 540 kts | 122° |
| 2026-05-07 16:34 | 43.63808 | 28.75979 | 29126 ft | 540 kts | 122° |
| 2026-05-07 16:34 | 43.59683 | 28.84657 | 29142 ft | 541 kts | 122° |
| 2026-05-07 16:35 | 43.55549 | 28.93330 | 29124 ft | 541 kts | 122° |
| 2026-05-07 16:35 | 43.51406 | 29.01996 | 29133 ft | 542 kts | 122° |
| 2026-05-07 16:36 | 43.47252 | 29.10659 | 29133 ft | 542 kts | 122° |
| 2026-05-07 16:36 | 43.43088 | 29.19317 | 29132 ft | 542 kts | 122° |
| 2026-05-07 16:37 | 43.38912 | 29.27974 | 29137 ft | 542 kts | 122° |
| 2026-05-07 16:37 | 43.34730 | 29.36619 | 29135 ft | 542 kts | 122° |
| 2026-05-07 16:38 | 43.30573 | 29.45187 | 29142 ft | 542 kts | 122° |
| 2026-05-07 16:38 | 43.26383 | 29.53797 | 29135 ft | 541 kts | 122° |
| 2026-05-07 16:39 | 43.22197 | 29.62376 | 29136 ft | 541 kts | 122° |
| 2026-05-07 16:39 | 43.18028 | 29.70894 | 29135 ft | 540 kts | 122° |
| 2026-05-07 16:40 | 43.13832 | 29.79443 | 29133 ft | 540 kts | 122° |
| 2026-05-07 16:40 | 43.09631 | 29.87977 | 29123 ft | 540 kts | 122° |
| 2026-05-07 16:41 | 43.05421 | 29.96506 | 29134 ft | 541 kts | 122° |
| 2026-05-07 16:41 | 43.01205 | 30.05021 | 29147 ft | 542 kts | 122° |
| 2026-05-07 16:42 | 42.96986 | 30.13518 | 29138 ft | 543 kts | 122° |
| 2026-05-07 16:42 | 42.92732 | 30.22062 | 29143 ft | 545 kts | 122° |
| 2026-05-07 16:43 | 42.88461 | 30.30617 | 29138 ft | 545 kts | 122° |
| 2026-05-07 16:43 | 42.84184 | 30.39157 | 29138 ft | 545 kts | 122° |
| 2026-05-07 16:44 | 42.79905 | 30.47683 | 29150 ft | 545 kts | 122° |
| 2026-05-07 16:44 | 42.75831 | 30.56355 | 29129 ft | 541 kts | 114° |
| 2026-05-07 16:45 | 42.73274 | 30.65880 | 29146 ft | 532 kts | 100° |
| 2026-05-07 16:45 | 42.72163 | 30.75688 | 29168 ft | 527 kts | 93° |
| 2026-05-07 16:46 | 42.71242 | 30.85588 | 29141 ft | 527 kts | 94° |
| 2026-05-07 16:46 | 42.70260 | 30.95446 | 29136 ft | 526 kts | 94° |
| 2026-05-07 16:47 | 42.69242 | 31.05286 | 29145 ft | 525 kts | 94° |
| 2026-05-07 16:47 | 42.68213 | 31.15110 | 29143 ft | 525 kts | 94° |
| 2026-05-07 16:48 | 42.67179 | 31.24929 | 29148 ft | 525 kts | 94° |
| 2026-05-07 16:48 | 42.66138 | 31.34756 | 29133 ft | 525 kts | 94° |
| 2026-05-07 16:49 | 42.65095 | 31.44513 | 29140 ft | 525 kts | 94° |
| 2026-05-07 16:49 | 42.64031 | 31.54389 | 29149 ft | 525 kts | 94° |
| 2026-05-07 16:50 | 42.62973 | 31.64124 | 29144 ft | 524 kts | 94° |
| 2026-05-07 16:50 | 42.61899 | 31.73928 | 29144 ft | 524 kts | 94° |
| 2026-05-07 16:51 | 42.60818 | 31.83725 | 29200 ft | 525 kts | 94° |
| 2026-05-07 16:51 | 42.60280 | 31.88569 | 29656 ft | 522 kts | 94° |
| 2026-05-07 16:51 | 42.59731 | 31.93485 | 30135 ft | 519 kts | 94° |
| 2026-05-07 16:51 | 42.59194 | 31.98293 | 30424 ft | 520 kts | 94° |
| 2026-05-07 16:52 | 42.58645 | 32.03151 | 30665 ft | 521 kts | 95° |
| 2026-05-07 16:52 | 42.58034 | 32.08006 | 30908 ft | 522 kts | 95° |
| 2026-05-07 16:52 | 42.57445 | 32.12860 | 31075 ft | 522 kts | 94° |
| 2026-05-07 16:53 | 42.56338 | 32.22612 | 31157 ft | 521 kts | 94° |
| 2026-05-07 16:53 | 42.55244 | 32.32306 | 31141 ft | 518 kts | 94° |
| 2026-05-07 16:54 | 42.54135 | 32.41931 | 31160 ft | 516 kts | 95° |
| 2026-05-07 16:54 | 42.53018 | 32.51478 | 31147 ft | 515 kts | 95° |
| 2026-05-07 16:55 | 42.51889 | 32.61049 | 31150 ft | 514 kts | 95° |
| 2026-05-07 16:55 | 42.50754 | 32.70610 | 31143 ft | 513 kts | 95° |
| 2026-05-07 16:56 | 42.49612 | 32.80163 | 31140 ft | 513 kts | 95° |
| 2026-05-07 16:56 | 42.47884 | 32.94495 | 31141 ft | 514 kts | 95° |
| 2026-05-07 16:57 | 42.46721 | 33.04051 | 31146 ft | 515 kts | 95° |
| 2026-05-07 16:57 | 42.45549 | 33.13618 | 31142 ft | 515 kts | 96° |
| 2026-05-07 16:58 | 42.44377 | 33.23195 | 31150 ft | 516 kts | 95° |
| 2026-05-07 16:58 | 42.43394 | 33.31224 | 31159 ft | 516 kts | 96° |
| 2026-05-07 16:59 | 42.42212 | 33.40801 | 31149 ft | 516 kts | 96° |
| 2026-05-07 16:59 | 42.41010 | 33.50363 | 31150 ft | 514 kts | 97° |
| 2026-05-07 17:00 | 42.39793 | 33.59882 | 31141 ft | 512 kts | 97° |
| 2026-05-07 17:00 | 42.38578 | 33.69359 | 31160 ft | 510 kts | 97° |
| 2026-05-07 17:01 | 42.37362 | 33.78799 | 31146 ft | 508 kts | 97° |
| 2026-05-07 17:01 | 42.36151 | 33.88140 | 31150 ft | 507 kts | 97° |
| 2026-05-07 17:02 | 42.34929 | 33.97511 | 31153 ft | 506 kts | 97° |
| 2026-05-07 17:02 | 42.33695 | 34.06943 | 31165 ft | 506 kts | 97° |
| 2026-05-07 17:03 | 42.32461 | 34.16316 | 31161 ft | 507 kts | 97° |
| 2026-05-07 17:03 | 42.31216 | 34.25707 | 31160 ft | 508 kts | 97° |
| 2026-05-07 17:04 | 42.29963 | 34.35100 | 31167 ft | 509 kts | 97° |
| 2026-05-07 17:04 | 42.28702 | 34.44456 | 31164 ft | 510 kts | 97° |
| 2026-05-07 17:05 | 42.27405 | 34.53893 | 31169 ft | 511 kts | 97° |
| 2026-05-07 17:05 | 42.26102 | 34.63331 | 31165 ft | 511 kts | 97° |
| 2026-05-07 17:06 | 42.24793 | 34.72773 | 31167 ft | 511 kts | 97° |
| 2026-05-07 17:06 | 42.23479 | 34.82203 | 31165 ft | 512 kts | 97° |
| 2026-05-07 17:07 | 42.22159 | 34.91647 | 31171 ft | 512 kts | 97° |
| 2026-05-07 17:07 | 42.20836 | 35.01077 | 31172 ft | 511 kts | 97° |
| 2026-05-07 17:08 | 42.19505 | 35.10505 | 31180 ft | 511 kts | 97° |
| 2026-05-07 17:08 | 42.18167 | 35.19923 | 31174 ft | 511 kts | 97° |
| 2026-05-07 17:09 | 42.16821 | 35.29333 | 31175 ft | 511 kts | 97° |
| 2026-05-07 17:09 | 42.15479 | 35.38675 | 31177 ft | 511 kts | 97° |
| 2026-05-07 17:10 | 42.14123 | 35.48064 | 31202 ft | 510 kts | 98° |
| 2026-05-07 17:10 | 42.12760 | 35.57469 | 31176 ft | 506 kts | 98° |
| 2026-05-07 17:11 | 42.11419 | 35.66670 | 31171 ft | 502 kts | 98° |
| 2026-05-07 17:11 | 42.10072 | 35.75868 | 31191 ft | 499 kts | 98° |
| 2026-05-07 17:12 | 42.08723 | 35.85025 | 31185 ft | 498 kts | 98° |
| 2026-05-07 17:12 | 42.07370 | 35.94158 | 31182 ft | 497 kts | 99° |
| 2026-05-07 17:13 | 42.06008 | 36.03300 | 31186 ft | 498 kts | 99° |
| 2026-05-07 17:13 | 42.04636 | 36.12449 | 31195 ft | 499 kts | 99° |
| 2026-05-07 17:14 | 42.03255 | 36.21612 | 31190 ft | 500 kts | 99° |
| 2026-05-07 17:14 | 42.01862 | 36.30798 | 31186 ft | 501 kts | 99° |
| 2026-05-07 17:15 | 42.00460 | 36.39987 | 31185 ft | 502 kts | 99° |
| 2026-05-07 17:15 | 41.99050 | 36.49184 | 31195 ft | 502 kts | 99° |
| 2026-05-07 17:16 | 41.97631 | 36.58380 | 31183 ft | 501 kts | 99° |
| 2026-05-07 17:16 | 41.96209 | 36.67549 | 31183 ft | 500 kts | 99° |
| 2026-05-07 17:17 | 41.94784 | 36.76684 | 31182 ft | 499 kts | 99° |
| 2026-05-07 17:17 | 41.93356 | 36.85794 | 31188 ft | 498 kts | 99° |
| 2026-05-07 17:18 | 41.91924 | 36.94890 | 31187 ft | 497 kts | 99° |
| 2026-05-07 17:18 | 41.90410 | 37.03958 | 31183 ft | 498 kts | 103° |
| 2026-05-07 17:19 | 41.87938 | 37.12676 | 31189 ft | 500 kts | 111° |
| 2026-05-07 17:19 | 41.85168 | 37.21244 | 31192 ft | 501 kts | 111° |
| 2026-05-07 17:20 | 41.82430 | 37.29850 | 31195 ft | 502 kts | 110° |
| 2026-05-07 17:20 | 41.79707 | 37.38477 | 31192 ft | 503 kts | 110° |
| 2026-05-07 17:21 | 41.76973 | 37.47122 | 31190 ft | 504 kts | 110° |
| 2026-05-07 17:21 | 41.74226 | 37.55766 | 31191 ft | 505 kts | 110° |
| 2026-05-07 17:22 | 41.71470 | 37.64416 | 31190 ft | 505 kts | 110° |
| 2026-05-07 17:22 | 41.68699 | 37.73061 | 31208 ft | 505 kts | 110° |
| 2026-05-07 17:23 | 41.65917 | 37.81697 | 31193 ft | 506 kts | 111° |
| 2026-05-07 17:23 | 41.63143 | 37.90287 | 31189 ft | 505 kts | 111° |
| 2026-05-07 17:24 | 41.60355 | 37.98894 | 31193 ft | 505 kts | 111° |
| 2026-05-07 17:24 | 41.57560 | 38.07503 | 31191 ft | 505 kts | 111° |
| 2026-05-07 17:25 | 41.54760 | 38.16095 | 31194 ft | 505 kts | 111° |
| 2026-05-07 17:25 | 41.51954 | 38.24682 | 31193 ft | 504 kts | 111° |
| 2026-05-07 17:26 | 41.49140 | 38.33263 | 31197 ft | 505 kts | 111° |
| 2026-05-07 17:26 | 41.46319 | 38.41842 | 31190 ft | 505 kts | 111° |
| 2026-05-07 17:27 | 41.43490 | 38.50417 | 31191 ft | 505 kts | 111° |
| 2026-05-07 17:27 | 41.40658 | 38.58975 | 31206 ft | 505 kts | 111° |
| 2026-05-07 17:28 | 41.37816 | 38.67537 | 31189 ft | 505 kts | 111° |
| 2026-05-07 17:28 | 41.34974 | 38.76078 | 31187 ft | 505 kts | 111° |
| 2026-05-07 17:29 | 41.32142 | 38.84621 | 31202 ft | 504 kts | 111° |
| 2026-05-07 17:29 | 41.29345 | 38.93179 | 31189 ft | 504 kts | 111° |
| 2026-05-07 17:30 | 41.26541 | 39.01728 | 31192 ft | 504 kts | 111° |
| 2026-05-07 17:30 | 41.23725 | 39.10271 | 31199 ft | 504 kts | 111° |
| 2026-05-07 17:31 | 41.20896 | 39.18803 | 31205 ft | 504 kts | 112° |
| 2026-05-07 17:31 | 41.17961 | 39.27257 | 31206 ft | 504 kts | 113° |
| 2026-05-07 17:32 | 41.14991 | 39.35674 | 31207 ft | 503 kts | 113° |
| 2026-05-07 17:32 | 41.12514 | 39.42717 | 31207 ft | 502 kts | 113° |
| 2026-05-07 17:33 | 41.09085 | 39.52481 | 31211 ft | 502 kts | 113° |
| 2026-05-07 17:33 | 41.06134 | 39.60861 | 31209 ft | 502 kts | 113° |
| 2026-05-07 17:34 | 41.03177 | 39.69232 | 31223 ft | 502 kts | 113° |
| 2026-05-07 17:34 | 41.00498 | 39.77749 | 31205 ft | 500 kts | 104° |
| 2026-05-07 17:35 | 40.99230 | 39.86746 | 31213 ft | 496 kts | 91° |
| 2026-05-07 17:35 | 40.99056 | 39.95849 | 31213 ft | 495 kts | 89° |
| 2026-05-07 17:36 | 40.98891 | 40.04964 | 31212 ft | 496 kts | 90° |
| 2026-05-07 17:36 | 40.98704 | 40.12557 | 31208 ft | 497 kts | 90° |
| 2026-05-07 17:37 | 40.98427 | 40.23184 | 31207 ft | 497 kts | 90° |
| 2026-05-07 17:37 | 40.98221 | 40.30841 | 31208 ft | 497 kts | 90° |
| 2026-05-07 17:38 | 40.97968 | 40.39986 | 31203 ft | 497 kts | 90° |
| 2026-05-07 17:38 | 40.97712 | 40.49111 | 31212 ft | 497 kts | 90° |
| 2026-05-07 17:39 | 40.97447 | 40.58206 | 31208 ft | 498 kts | 91° |
| 2026-05-07 17:39 | 40.97173 | 40.67364 | 31213 ft | 498 kts | 91° |
| 2026-05-07 17:40 | 40.96893 | 40.76530 | 31220 ft | 499 kts | 91° |
| 2026-05-07 17:40 | 40.96606 | 40.85702 | 31223 ft | 499 kts | 91° |
| 2026-05-07 17:41 | 40.96308 | 40.94906 | 31215 ft | 501 kts | 91° |
| 2026-05-07 17:41 | 40.95997 | 41.04128 | 31218 ft | 502 kts | 91° |
| 2026-05-07 17:42 | 40.95678 | 41.13367 | 31218 ft | 503 kts | 91° |
| 2026-05-07 17:42 | 40.95353 | 41.22626 | 31217 ft | 504 kts | 92° |
| 2026-05-07 17:43 | 40.95021 | 41.31903 | 31207 ft | 505 kts | 92° |
| 2026-05-07 17:43 | 40.94682 | 41.41125 | 31214 ft | 506 kts | 92° |
| 2026-05-07 17:44 | 40.94333 | 41.50427 | 31213 ft | 507 kts | 92° |
| 2026-05-07 17:44 | 40.93976 | 41.59741 | 31214 ft | 507 kts | 93° |
| 2026-05-07 17:45 | 40.93611 | 41.69055 | 31210 ft | 508 kts | 93° |
| 2026-05-07 17:45 | 40.93239 | 41.78390 | 31220 ft | 508 kts | 93° |
| 2026-05-07 17:46 | 40.92858 | 41.87740 | 31215 ft | 509 kts | 93° |
| 2026-05-07 17:46 | 40.92470 | 41.97079 | 31209 ft | 509 kts | 94° |
| 2026-05-07 17:47 | 40.92074 | 42.06420 | 31222 ft | 509 kts | 94° |
| 2026-05-07 17:47 | 40.91672 | 42.15752 | 31222 ft | 509 kts | 94° |
| 2026-05-07 17:48 | 40.91261 | 42.25093 | 31225 ft | 508 kts | 94° |
| 2026-05-07 17:48 | 40.90842 | 42.34426 | 31237 ft | 509 kts | 94° |
| 2026-05-07 17:49 | 40.90417 | 42.43753 | 31233 ft | 508 kts | 94° |
| 2026-05-07 17:49 | 40.89984 | 42.53066 | 31219 ft | 508 kts | 95° |
| 2026-05-07 17:50 | 40.89544 | 42.62395 | 31238 ft | 509 kts | 95° |
| 2026-05-07 17:50 | 40.89095 | 42.71740 | 31240 ft | 510 kts | 95° |
| 2026-05-07 17:51 | 40.88637 | 42.81105 | 31236 ft | 511 kts | 95° |
| 2026-05-07 17:51 | 40.88171 | 42.90490 | 31235 ft | 512 kts | 95° |
| 2026-05-07 17:52 | 40.87696 | 42.99898 | 31218 ft | 513 kts | 96° |
| 2026-05-07 17:52 | 40.87212 | 43.09317 | 31228 ft | 515 kts | 96° |
| 2026-05-07 17:53 | 40.86718 | 43.18791 | 31218 ft | 517 kts | 96° |
| 2026-05-07 17:53 | 40.86216 | 43.28270 | 31202 ft | 517 kts | 96° |
| 2026-05-07 17:54 | 40.85706 | 43.37754 | 31208 ft | 517 kts | 96° |
| 2026-05-07 17:54 | 40.85189 | 43.47238 | 31193 ft | 518 kts | 96° |
| 2026-05-07 17:55 | 40.84664 | 43.56710 | 31193 ft | 517 kts | 96° |
| 2026-05-07 17:55 | 40.84132 | 43.66181 | 31191 ft | 516 kts | 96° |
| 2026-05-07 17:56 | 40.83686 | 43.75645 | 31170 ft | 517 kts | 95° |
| 2026-05-07 17:56 | 40.83415 | 43.85139 | 31188 ft | 519 kts | 94° |
| 2026-05-07 17:57 | 40.83192 | 43.93062 | 31202 ft | 521 kts | 95° |
| 2026-05-07 17:57 | 40.82832 | 44.04260 | 31202 ft | 524 kts | 95° |
| 2026-05-07 17:58 | 40.82496 | 44.13888 | 31208 ft | 525 kts | 95° |
| 2026-05-07 17:58 | 40.82152 | 44.23475 | 31192 ft | 526 kts | 96° |
| 2026-05-07 17:59 | 40.81799 | 44.33136 | 31217 ft | 527 kts | 96° |
| 2026-05-07 17:59 | 40.81441 | 44.42805 | 31218 ft | 528 kts | 96° |
| 2026-05-07 18:00 | 40.81071 | 44.52486 | 31225 ft | 527 kts | 96° |
| 2026-05-07 18:00 | 40.80700 | 44.62162 | 31199 ft | 528 kts | 96° |
| 2026-05-07 18:01 | 40.80312 | 44.71853 | 31203 ft | 529 kts | 97° |
| 2026-05-07 18:01 | 40.79916 | 44.81522 | 31209 ft | 531 kts | 97° |
| 2026-05-07 18:02 | 40.79310 | 44.96125 | 31210 ft | 532 kts | 97° |
| 2026-05-07 18:03 | 40.78894 | 45.05905 | 31160 ft | 533 kts | 97° |
| 2026-05-07 18:03 | 40.78472 | 45.15668 | 31194 ft | 533 kts | 97° |
| 2026-05-07 18:04 | 40.78033 | 45.25448 | 31184 ft | 534 kts | 97° |
| 2026-05-07 18:04 | 40.77593 | 45.35199 | 31186 ft | 535 kts | 97° |
| 2026-05-07 18:05 | 40.77145 | 45.45010 | 31179 ft | 536 kts | 97° |
| 2026-05-07 18:05 | 40.77254 | 45.54891 | 31174 ft | 544 kts | 86° |
| 2026-05-07 18:06 | 40.78330 | 45.64810 | 31157 ft | 548 kts | 85° |
| 2026-05-07 18:06 | 40.79426 | 45.74771 | 31169 ft | 549 kts | 85° |
| 2026-05-07 18:07 | 40.80464 | 45.84782 | 31138 ft | 550 kts | 86° |
| 2026-05-07 18:07 | 40.81465 | 45.94781 | 31132 ft | 549 kts | 86° |
| 2026-05-07 18:08 | 40.82461 | 46.04771 | 31127 ft | 549 kts | 86° |
| 2026-05-07 18:08 | 40.83452 | 46.14778 | 31132 ft | 549 kts | 86° |
| 2026-05-07 18:09 | 40.84430 | 46.24740 | 31114 ft | 550 kts | 86° |
| 2026-05-07 18:09 | 40.85406 | 46.34768 | 31124 ft | 551 kts | 86° |
| 2026-05-07 18:10 | 40.86374 | 46.44811 | 31123 ft | 551 kts | 86° |
| 2026-05-07 18:10 | 40.87335 | 46.54872 | 31124 ft | 552 kts | 86° |
| 2026-05-07 18:11 | 40.88289 | 46.64953 | 31116 ft | 552 kts | 86° |
| 2026-05-07 18:11 | 40.89235 | 46.75036 | 31114 ft | 552 kts | 87° |
| 2026-05-07 18:12 | 40.89737 | 46.85123 | 31113 ft | 547 kts | 96° |
| 2026-05-07 18:12 | 40.89056 | 46.95079 | 31121 ft | 543 kts | 101° |
| 2026-05-07 18:13 | 40.88255 | 47.05024 | 31120 ft | 545 kts | 101° |
| 2026-05-07 18:13 | 40.87511 | 47.14946 | 31094 ft | 546 kts | 101° |
| 2026-05-07 18:14 | 40.86777 | 47.24950 | 31122 ft | 547 kts | 101° |
| 2026-05-07 18:14 | 40.86029 | 47.34967 | 31132 ft | 548 kts | 101° |
| 2026-05-07 18:15 | 40.85268 | 47.44997 | 31126 ft | 549 kts | 101° |
| 2026-05-07 18:15 | 40.84520 | 47.54975 | 31105 ft | 549 kts | 100° |
| 2026-05-07 18:16 | 40.83898 | 47.65028 | 31120 ft | 550 kts | 99° |
| 2026-05-07 18:16 | 40.83304 | 47.75105 | 31140 ft | 551 kts | 99° |
| 2026-05-07 18:17 | 40.82684 | 47.85202 | 31138 ft | 551 kts | 100° |
| 2026-05-07 18:17 | 40.82038 | 47.95305 | 31129 ft | 552 kts | 100° |
| 2026-05-07 18:18 | 40.81381 | 48.05382 | 31145 ft | 551 kts | 100° |
| 2026-05-07 18:18 | 40.80717 | 48.15460 | 31146 ft | 551 kts | 99° |
| 2026-05-07 18:19 | 40.80049 | 48.25479 | 31135 ft | 551 kts | 100° |
| 2026-05-07 18:19 | 40.79369 | 48.35561 | 31137 ft | 550 kts | 100° |
| 2026-05-07 18:20 | 40.78798 | 48.43919 | 31136 ft | 550 kts | 100° |
| 2026-05-07 18:20 | 40.78103 | 48.53985 | 31142 ft | 550 kts | 100° |
| 2026-05-07 18:21 | 40.77398 | 48.64039 | 31148 ft | 551 kts | 101° |
| 2026-05-07 18:21 | 40.76680 | 48.74130 | 31149 ft | 552 kts | 101° |
| 2026-05-07 18:22 | 40.75957 | 48.84214 | 31113 ft | 552 kts | 101° |
| 2026-05-07 18:22 | 40.75227 | 48.94254 | 31136 ft | 554 kts | 101° |
| 2026-05-07 18:23 | 40.74480 | 49.04398 | 31140 ft | 556 kts | 101° |
| 2026-05-07 18:23 | 40.73725 | 49.14562 | 31134 ft | 558 kts | 101° |
| 2026-05-07 18:24 | 40.72959 | 49.24751 | 31118 ft | 559 kts | 101° |
| 2026-05-07 18:24 | 40.71862 | 49.34859 | 31106 ft | 555 kts | 106° |
| 2026-05-07 18:25 | 40.70581 | 49.44850 | 31120 ft | 556 kts | 105° |
| 2026-05-07 18:25 | 40.69390 | 49.54928 | 31116 ft | 557 kts | 105° |
| 2026-05-07 18:26 | 40.68177 | 49.65009 | 31105 ft | 557 kts | 105° |
| 2026-05-07 18:26 | 40.66939 | 49.75115 | 31107 ft | 558 kts | 105° |
| 2026-05-07 18:27 | 40.65697 | 49.85200 | 31109 ft | 558 kts | 105° |
| 2026-05-07 18:27 | 40.64448 | 49.95289 | 31104 ft | 558 kts | 105° |
| 2026-05-07 18:28 | 40.63192 | 50.05375 | 31080 ft | 558 kts | 105° |
| 2026-05-07 18:28 | 40.61933 | 50.15400 | 31104 ft | 557 kts | 105° |
| 2026-05-07 18:29 | 40.60661 | 50.25460 | 31101 ft | 557 kts | 105° |
| 2026-05-07 18:29 | 40.59380 | 50.35509 | 31106 ft | 557 kts | 105° |
| 2026-05-07 18:30 | 40.58090 | 50.45566 | 31087 ft | 557 kts | 105° |
| 2026-05-07 18:30 | 40.56792 | 50.55607 | 31112 ft | 556 kts | 105° |
| 2026-05-07 18:31 | 40.55488 | 50.65627 | 31115 ft | 556 kts | 105° |
| 2026-05-07 18:31 | 40.54183 | 50.75586 | 31117 ft | 556 kts | 105° |
| 2026-05-07 18:32 | 40.52863 | 50.85598 | 31095 ft | 555 kts | 106° |
| 2026-05-07 18:32 | 40.51627 | 50.95622 | 31115 ft | 557 kts | 103° |
| 2026-05-07 18:33 | 40.50723 | 51.05749 | 31124 ft | 558 kts | 102° |
| 2026-05-07 18:33 | 40.49849 | 51.15882 | 31122 ft | 558 kts | 102° |
| 2026-05-07 18:34 | 40.48931 | 51.26005 | 31091 ft | 558 kts | 102° |
| 2026-05-07 18:34 | 40.47991 | 51.36110 | 31117 ft | 557 kts | 102° |
| 2026-05-07 18:35 | 40.47046 | 51.46224 | 31120 ft | 558 kts | 102° |
| 2026-05-07 18:35 | 40.45669 | 51.56177 | 31124 ft | 551 kts | 110° |
| 2026-05-07 18:36 | 40.43814 | 51.65935 | 31095 ft | 551 kts | 110° |
| 2026-05-07 18:36 | 40.41962 | 51.75691 | 31119 ft | 551 kts | 110° |
| 2026-05-07 18:37 | 40.40141 | 51.85472 | 31114 ft | 551 kts | 110° |
| 2026-05-07 18:37 | 40.38340 | 51.95183 | 31120 ft | 551 kts | 110° |
| 2026-05-07 18:38 | 40.36514 | 52.04968 | 31116 ft | 551 kts | 110° |
| 2026-05-07 18:38 | 40.34681 | 52.14720 | 31114 ft | 551 kts | 110° |
| 2026-05-07 18:39 | 40.32839 | 52.24465 | 31116 ft | 551 kts | 110° |
| 2026-05-07 18:39 | 40.30986 | 52.34224 | 31107 ft | 550 kts | 110° |
| 2026-05-07 18:40 | 40.29144 | 52.43879 | 31105 ft | 549 kts | 110° |
| 2026-05-07 18:40 | 40.27283 | 52.53592 | 31116 ft | 549 kts | 110° |
| 2026-05-07 18:41 | 40.25414 | 52.63305 | 31123 ft | 549 kts | 110° |
| 2026-05-07 18:41 | 40.23559 | 52.72947 | 31096 ft | 548 kts | 110° |
| 2026-05-07 18:42 | 40.21694 | 52.82613 | 31114 ft | 548 kts | 110° |
| 2026-05-07 18:42 | 40.19821 | 52.92270 | 31120 ft | 547 kts | 110° |
| 2026-05-07 18:43 | 40.17940 | 53.01919 | 31126 ft | 547 kts | 110° |
| 2026-05-07 18:43 | 40.16050 | 53.11564 | 31125 ft | 547 kts | 110° |
| 2026-05-07 18:44 | 40.14150 | 53.21215 | 31123 ft | 548 kts | 110° |
| 2026-05-07 18:44 | 40.12243 | 53.30859 | 31118 ft | 548 kts | 110° |
| 2026-05-07 18:45 | 40.10339 | 53.40442 | 31117 ft | 548 kts | 110° |
| 2026-05-07 18:45 | 40.08416 | 53.50071 | 31101 ft | 548 kts | 110° |
| 2026-05-07 18:46 | 40.06482 | 53.59709 | 31108 ft | 547 kts | 110° |
| 2026-05-07 18:46 | 40.04545 | 53.69321 | 31108 ft | 548 kts | 110° |
| 2026-05-07 18:47 | 40.02598 | 53.78937 | 31089 ft | 548 kts | 110° |
| 2026-05-07 18:47 | 40.00640 | 53.88564 | 31099 ft | 548 kts | 111° |
| 2026-05-07 18:48 | 39.98690 | 53.98105 | 31108 ft | 548 kts | 111° |
| 2026-05-07 18:48 | 39.96716 | 54.07719 | 31099 ft | 548 kts | 111° |
| 2026-05-07 18:49 | 39.94737 | 54.17317 | 31092 ft | 548 kts | 111° |
| 2026-05-07 18:49 | 39.92750 | 54.26908 | 31109 ft | 548 kts | 111° |
| 2026-05-07 18:50 | 39.90751 | 54.36516 | 31100 ft | 549 kts | 111° |
| 2026-05-07 18:50 | 39.88744 | 54.46121 | 31078 ft | 549 kts | 111° |
| 2026-05-07 18:51 | 39.86706 | 54.55689 | 31099 ft | 548 kts | 111° |
| 2026-05-07 18:51 | 39.84650 | 54.65263 | 31101 ft | 549 kts | 111° |
| 2026-05-07 18:52 | 39.82609 | 54.74762 | 31094 ft | 549 kts | 111° |
| 2026-05-07 18:52 | 39.80558 | 54.84336 | 31083 ft | 550 kts | 111° |
| 2026-05-07 18:53 | 39.78515 | 54.93931 | 31090 ft | 550 kts | 111° |
| 2026-05-07 18:53 | 39.76463 | 55.03520 | 31087 ft | 551 kts | 111° |
| 2026-05-07 18:54 | 39.74397 | 55.13115 | 31057 ft | 552 kts | 111° |
| 2026-05-07 18:54 | 39.72321 | 55.22713 | 31072 ft | 552 kts | 111° |
| 2026-05-07 18:55 | 39.70234 | 55.32330 | 31073 ft | 553 kts | 111° |
| 2026-05-07 18:55 | 39.68132 | 55.41939 | 31074 ft | 553 kts | 111° |
| 2026-05-07 18:56 | 39.66007 | 55.51549 | 31073 ft | 554 kts | 111° |
| 2026-05-07 18:56 | 39.63886 | 55.61109 | 31061 ft | 554 kts | 111° |
| 2026-05-07 18:57 | 39.61746 | 55.70727 | 31062 ft | 554 kts | 111° |
| 2026-05-07 18:57 | 39.59603 | 55.80323 | 31041 ft | 554 kts | 111° |
| 2026-05-07 18:58 | 39.57452 | 55.89913 | 31064 ft | 553 kts | 111° |
| 2026-05-07 18:58 | 39.55306 | 55.99485 | 31059 ft | 553 kts | 111° |
| 2026-05-07 18:59 | 39.53158 | 56.09066 | 31062 ft | 553 kts | 111° |
| 2026-05-07 18:59 | 39.51005 | 56.18631 | 31055 ft | 553 kts | 111° |
| 2026-05-07 19:00 | 39.48855 | 56.28135 | 31062 ft | 553 kts | 111° |
| 2026-05-07 19:00 | 39.46686 | 56.37681 | 31053 ft | 553 kts | 111° |
| 2026-05-07 19:01 | 39.44512 | 56.47209 | 31057 ft | 553 kts | 111° |
| 2026-05-07 19:01 | 39.42325 | 56.56751 | 31053 ft | 552 kts | 111° |
| 2026-05-07 19:02 | 39.40133 | 56.66283 | 31044 ft | 552 kts | 111° |
| 2026-05-07 19:02 | 39.37933 | 56.75809 | 31050 ft | 552 kts | 111° |
| 2026-05-07 19:03 | 39.35708 | 56.85238 | 31033 ft | 552 kts | 112° |
| 2026-05-07 19:03 | 39.33292 | 56.94653 | 31057 ft | 551 kts | 113° |
| 2026-05-07 19:04 | 39.30834 | 57.04040 | 31054 ft | 552 kts | 113° |
| 2026-05-07 19:04 | 39.28392 | 57.13443 | 31049 ft | 552 kts | 112° |
| 2026-05-07 19:05 | 39.26369 | 57.21267 | 31044 ft | 553 kts | 112° |
| 2026-05-07 19:05 | 39.23930 | 57.30681 | 31045 ft | 553 kts | 112° |
| 2026-05-07 19:06 | 39.21480 | 57.40099 | 31047 ft | 554 kts | 112° |
| 2026-05-07 19:06 | 39.17786 | 57.54215 | 31028 ft | 554 kts | 112° |
| 2026-05-07 19:07 | 39.15309 | 57.63633 | 31040 ft | 554 kts | 112° |
| 2026-05-07 19:07 | 39.12825 | 57.73046 | 31044 ft | 554 kts | 112° |
| 2026-05-07 19:08 | 39.10337 | 57.82441 | 31041 ft | 554 kts | 112° |
| 2026-05-07 19:08 | 39.07842 | 57.91825 | 31037 ft | 554 kts | 112° |
| 2026-05-07 19:09 | 39.05352 | 58.01153 | 31041 ft | 554 kts | 112° |
| 2026-05-07 19:09 | 39.02844 | 58.10516 | 31038 ft | 553 kts | 112° |
| 2026-05-07 19:10 | 39.00329 | 58.19871 | 31018 ft | 553 kts | 112° |
| 2026-05-07 19:10 | 38.97808 | 58.29217 | 31038 ft | 553 kts | 112° |
| 2026-05-07 19:11 | 38.95276 | 58.38566 | 31038 ft | 554 kts | 112° |
| 2026-05-07 19:11 | 38.92749 | 58.47864 | 31034 ft | 554 kts | 112° |
| 2026-05-07 19:12 | 38.90204 | 58.57201 | 31026 ft | 554 kts | 112° |
| 2026-05-07 19:12 | 38.87387 | 58.66392 | 31031 ft | 550 kts | 120° |
| 2026-05-07 19:13 | 38.83907 | 58.75123 | 31036 ft | 550 kts | 121° |
| 2026-05-07 19:13 | 38.80405 | 58.83862 | 31030 ft | 551 kts | 121° |
| 2026-05-07 19:14 | 38.76943 | 58.92622 | 31031 ft | 551 kts | 121° |
| 2026-05-07 19:14 | 38.73490 | 59.01390 | 31029 ft | 551 kts | 121° |
| 2026-05-07 19:15 | 38.70027 | 59.10150 | 31028 ft | 551 kts | 121° |
| 2026-05-07 19:15 | 38.66550 | 59.18910 | 31018 ft | 551 kts | 121° |
| 2026-05-07 19:16 | 38.63094 | 59.27592 | 31028 ft | 551 kts | 121° |
| 2026-05-07 19:16 | 38.59607 | 59.36329 | 31027 ft | 552 kts | 121° |
| 2026-05-07 19:17 | 38.56235 | 59.45152 | 31012 ft | 553 kts | 118° |
| 2026-05-07 19:17 | 38.52980 | 59.54052 | 31021 ft | 553 kts | 118° |
| 2026-05-07 19:18 | 38.49711 | 59.62956 | 31017 ft | 553 kts | 118° |
| 2026-05-07 19:18 | 38.46408 | 59.71833 | 30993 ft | 553 kts | 118° |
| 2026-05-07 19:19 | 38.43093 | 59.80679 | 31023 ft | 552 kts | 118° |
| 2026-05-07 19:19 | 38.39787 | 59.89473 | 31023 ft | 552 kts | 118° |
| 2026-05-07 19:20 | 38.36463 | 59.98299 | 31022 ft | 552 kts | 118° |
| 2026-05-07 19:20 | 38.33127 | 60.07134 | 31002 ft | 552 kts | 118° |
| 2026-05-07 19:21 | 38.29798 | 60.15925 | 31015 ft | 552 kts | 118° |
| 2026-05-07 19:21 | 38.26458 | 60.24717 | 31020 ft | 552 kts | 118° |
| 2026-05-07 19:22 | 38.23131 | 60.33452 | 30993 ft | 552 kts | 118° |
| 2026-05-07 19:22 | 38.19778 | 60.42231 | 31005 ft | 552 kts | 118° |
| 2026-05-07 19:23 | 38.16413 | 60.51013 | 31014 ft | 552 kts | 118° |
| 2026-05-07 19:23 | 38.13040 | 60.59791 | 31010 ft | 552 kts | 118° |
| 2026-05-07 19:24 | 38.09661 | 60.68563 | 30989 ft | 552 kts | 118° |
| 2026-05-07 19:24 | 38.06278 | 60.77317 | 31012 ft | 552 kts | 118° |
| 2026-05-07 19:25 | 38.02903 | 60.86026 | 31002 ft | 553 kts | 119° |
| 2026-05-07 19:25 | 37.99505 | 60.94771 | 31003 ft | 553 kts | 119° |
| 2026-05-07 19:26 | 37.96097 | 61.03517 | 30990 ft | 553 kts | 119° |
| 2026-05-07 19:26 | 37.92682 | 61.12254 | 30993 ft | 553 kts | 118° |
| 2026-05-07 19:27 | 37.89285 | 61.20924 | 30993 ft | 553 kts | 119° |
| 2026-05-07 19:27 | 37.85860 | 61.29640 | 30981 ft | 553 kts | 119° |
| 2026-05-07 19:28 | 37.82425 | 61.38354 | 30982 ft | 552 kts | 118° |
| 2026-05-07 19:28 | 37.78987 | 61.47056 | 30983 ft | 552 kts | 118° |
| 2026-05-07 19:29 | 37.75547 | 61.55738 | 30985 ft | 552 kts | 119° |
| 2026-05-07 19:29 | 37.72124 | 61.64351 | 30974 ft | 552 kts | 119° |
| 2026-05-07 19:30 | 37.68666 | 61.73031 | 30977 ft | 553 kts | 119° |
| 2026-05-07 19:30 | 37.65205 | 61.81697 | 30995 ft | 553 kts | 119° |
| 2026-05-07 19:31 | 37.61592 | 61.90257 | 30985 ft | 551 kts | 124° |
| 2026-05-07 19:31 | 37.57125 | 61.98061 | 31001 ft | 548 kts | 130° |
| 2026-05-07 19:32 | 37.52521 | 62.05731 | 30998 ft | 548 kts | 130° |
| 2026-05-07 19:32 | 37.47961 | 62.13411 | 30992 ft | 547 kts | 129° |
| 2026-05-07 19:33 | 37.43419 | 62.21109 | 30990 ft | 547 kts | 129° |
| 2026-05-07 19:33 | 37.38876 | 62.28805 | 31005 ft | 547 kts | 129° |
| 2026-05-07 19:34 | 37.34334 | 62.36475 | 30998 ft | 547 kts | 129° |
| 2026-05-07 19:34 | 37.29814 | 62.44084 | 30987 ft | 546 kts | 129° |
| 2026-05-07 19:35 | 37.25261 | 62.51730 | 31000 ft | 546 kts | 129° |
| 2026-05-07 19:35 | 37.20709 | 62.59356 | 31008 ft | 546 kts | 129° |
| 2026-05-07 19:36 | 37.16151 | 62.66977 | 30987 ft | 545 kts | 129° |
| 2026-05-07 19:36 | 37.11618 | 62.74538 | 30999 ft | 546 kts | 129° |
| 2026-05-07 19:37 | 37.07048 | 62.82142 | 31004 ft | 547 kts | 129° |
| 2026-05-07 19:37 | 37.02461 | 62.89759 | 31012 ft | 546 kts | 129° |
| 2026-05-07 19:38 | 36.97878 | 62.97352 | 30999 ft | 546 kts | 129° |
| 2026-05-07 19:38 | 36.93317 | 63.04891 | 31009 ft | 546 kts | 129° |
| 2026-05-07 19:39 | 36.88721 | 63.12471 | 31012 ft | 547 kts | 129° |
| 2026-05-07 19:39 | 36.84895 | 63.18768 | 31007 ft | 546 kts | 129° |
| 2026-05-07 19:40 | 36.79520 | 63.27596 | 31014 ft | 546 kts | 129° |
| 2026-05-07 19:40 | 36.74934 | 63.35108 | 31009 ft | 547 kts | 129° |
| 2026-05-07 19:41 | 36.70322 | 63.42647 | 31011 ft | 547 kts | 129° |
| 2026-05-07 19:41 | 36.65705 | 63.50177 | 31013 ft | 546 kts | 129° |
| 2026-05-07 19:42 | 36.61088 | 63.57691 | 31015 ft | 546 kts | 129° |
| 2026-05-07 19:42 | 36.56463 | 63.65201 | 31017 ft | 546 kts | 129° |
| 2026-05-07 19:43 | 36.51838 | 63.72693 | 31007 ft | 546 kts | 129° |
| 2026-05-07 19:43 | 36.47209 | 63.80177 | 31028 ft | 546 kts | 129° |
| 2026-05-07 19:44 | 36.42578 | 63.87648 | 31013 ft | 546 kts | 129° |
| 2026-05-07 19:44 | 36.37971 | 63.95062 | 31019 ft | 545 kts | 129° |
| 2026-05-07 19:45 | 36.33335 | 64.02508 | 31015 ft | 545 kts | 129° |
| 2026-05-07 19:45 | 36.28686 | 64.09958 | 31022 ft | 546 kts | 129° |
| 2026-05-07 19:46 | 36.24038 | 64.17392 | 31018 ft | 545 kts | 129° |
| 2026-05-07 19:46 | 36.19388 | 64.24816 | 31010 ft | 545 kts | 129° |
| 2026-05-07 19:47 | 36.14752 | 64.32254 | 31019 ft | 546 kts | 128° |
| 2026-05-07 19:47 | 36.10252 | 64.39824 | 31034 ft | 546 kts | 127° |
| 2026-05-07 19:48 | 36.05790 | 64.47417 | 31026 ft | 546 kts | 127° |
| 2026-05-07 19:48 | 36.01331 | 64.54941 | 31046 ft | 545 kts | 127° |
| 2026-05-07 19:49 | 35.96828 | 64.62480 | 31044 ft | 545 kts | 127° |
| 2026-05-07 19:49 | 35.92310 | 64.70017 | 31128 ft | 548 kts | 127° |
| 2026-05-07 19:50 | 35.90040 | 64.73798 | 31366 ft | 549 kts | 127° |
| 2026-05-07 19:50 | 35.87764 | 64.77587 | 31656 ft | 548 kts | 127° |
| 2026-05-07 19:50 | 35.85491 | 64.81367 | 31920 ft | 549 kts | 127° |
| 2026-05-07 19:50 | 35.83984 | 64.83873 | 32104 ft | 549 kts | 127° |
| 2026-05-07 19:51 | 35.81707 | 64.87654 | 32386 ft | 549 kts | 128° |
| 2026-05-07 19:51 | 35.78686 | 64.92665 | 32717 ft | 550 kts | 128° |
| 2026-05-07 19:51 | 35.76400 | 64.96452 | 32936 ft | 551 kts | 128° |
| 2026-05-07 19:51 | 35.74109 | 65.00242 | 33048 ft | 552 kts | 128° |
| 2026-05-07 19:52 | 35.70263 | 65.06595 | 33105 ft | 551 kts | 128° |
| 2026-05-07 19:52 | 35.65671 | 65.14166 | 33125 ft | 553 kts | 128° |
| 2026-05-07 19:53 | 35.61071 | 65.21735 | 33133 ft | 554 kts | 128° |
| 2026-05-07 19:53 | 35.56455 | 65.29311 | 33144 ft | 554 kts | 128° |
| 2026-05-07 19:54 | 35.51831 | 65.36884 | 33151 ft | 554 kts | 127° |
| 2026-05-07 19:54 | 35.47203 | 65.44451 | 33164 ft | 554 kts | 127° |
| 2026-05-07 19:55 | 35.42604 | 65.51951 | 33169 ft | 553 kts | 128° |
| 2026-05-07 19:55 | 35.37983 | 65.59473 | 33176 ft | 552 kts | 127° |
| 2026-05-07 19:56 | 35.33356 | 65.66987 | 33194 ft | 552 kts | 127° |
| 2026-05-07 19:56 | 35.28732 | 65.74479 | 33207 ft | 552 kts | 127° |
| 2026-05-07 19:57 | 35.24102 | 65.81967 | 33219 ft | 552 kts | 128° |
| 2026-05-07 19:57 | 35.19460 | 65.89455 | 33212 ft | 553 kts | 127° |
| 2026-05-07 19:58 | 35.14812 | 65.96941 | 33233 ft | 553 kts | 127° |
| 2026-05-07 19:58 | 35.10149 | 66.04434 | 33242 ft | 553 kts | 127° |
| 2026-05-07 19:59 | 35.05477 | 66.11924 | 33225 ft | 554 kts | 127° |
| 2026-05-07 19:59 | 35.00809 | 66.19395 | 33224 ft | 553 kts | 127° |
| 2026-05-07 20:00 | 34.96137 | 66.26855 | 33250 ft | 554 kts | 128° |
| 2026-05-07 20:00 | 34.91445 | 66.34269 | 33236 ft | 555 kts | 128° |
| 2026-05-07 20:01 | 34.86710 | 66.41708 | 33240 ft | 555 kts | 128° |
| 2026-05-07 20:01 | 34.81970 | 66.49150 | 33223 ft | 555 kts | 128° |
| 2026-05-07 20:02 | 34.77265 | 66.56532 | 33223 ft | 555 kts | 128° |
| 2026-05-07 20:02 | 34.72534 | 66.63938 | 33245 ft | 554 kts | 128° |
| 2026-05-07 20:03 | 34.67802 | 66.71331 | 33217 ft | 554 kts | 128° |
| 2026-05-07 20:03 | 34.63059 | 66.78726 | 33230 ft | 553 kts | 128° |
| 2026-05-07 20:04 | 34.58352 | 66.86049 | 33226 ft | 553 kts | 128° |
| 2026-05-07 20:04 | 34.53611 | 66.93410 | 33217 ft | 553 kts | 128° |
| 2026-05-07 20:05 | 34.48862 | 67.00742 | 33198 ft | 552 kts | 128° |
| 2026-05-07 20:05 | 34.44114 | 67.08044 | 33217 ft | 551 kts | 128° |
| 2026-05-07 20:06 | 34.39364 | 67.15339 | 33215 ft | 551 kts | 128° |
| 2026-05-07 20:06 | 34.34610 | 67.22630 | 33224 ft | 552 kts | 128° |
| 2026-05-07 20:07 | 34.29844 | 67.29926 | 33204 ft | 553 kts | 128° |
| 2026-05-07 20:07 | 34.25093 | 67.37184 | 33203 ft | 552 kts | 128° |
| 2026-05-07 20:08 | 34.20319 | 67.44462 | 33213 ft | 552 kts | 128° |
| 2026-05-07 20:08 | 34.15534 | 67.51741 | 33212 ft | 553 kts | 128° |
| 2026-05-07 20:09 | 34.10748 | 67.59008 | 33205 ft | 552 kts | 128° |
| 2026-05-07 20:10 | 34.03569 | 67.69883 | 33173 ft | 552 kts | 128° |
| 2026-05-07 20:10 | 33.98783 | 67.77117 | 33201 ft | 552 kts | 128° |
| 2026-05-07 20:11 | 33.93972 | 67.84317 | 33170 ft | 551 kts | 128° |
| 2026-05-07 20:11 | 33.89157 | 67.91436 | 33181 ft | 551 kts | 128° |
| 2026-05-07 20:12 | 33.84313 | 67.98592 | 33157 ft | 551 kts | 128° |
| 2026-05-07 20:12 | 33.79462 | 68.05760 | 33149 ft | 552 kts | 128° |
| 2026-05-07 20:13 | 33.74605 | 68.12927 | 33122 ft | 552 kts | 128° |
| 2026-05-07 20:13 | 33.69746 | 68.20082 | 33124 ft | 553 kts | 128° |
| 2026-05-07 20:14 | 33.64876 | 68.27235 | 33115 ft | 553 kts | 128° |
| 2026-05-07 20:14 | 33.60036 | 68.34334 | 33068 ft | 552 kts | 128° |
| 2026-05-07 20:15 | 33.55175 | 68.41449 | 33039 ft | 551 kts | 128° |
| 2026-05-07 20:15 | 33.50241 | 68.48498 | 33021 ft | 550 kts | 129° |
| 2026-05-07 20:16 | 33.45252 | 68.55462 | 33035 ft | 550 kts | 130° |
| 2026-05-07 20:16 | 33.40280 | 68.62418 | 33005 ft | 549 kts | 129° |
| 2026-05-07 20:17 | 33.35331 | 68.69359 | 32988 ft | 548 kts | 129° |
| 2026-05-07 20:17 | 33.30417 | 68.76242 | 33004 ft | 547 kts | 129° |
| 2026-05-07 20:18 | 33.25574 | 68.83240 | 33010 ft | 546 kts | 127° |
| 2026-05-07 20:18 | 33.20952 | 68.90441 | 33027 ft | 546 kts | 126° |
| 2026-05-07 20:19 | 33.16343 | 68.97659 | 33021 ft | 546 kts | 126° |
| 2026-05-07 20:19 | 33.11706 | 69.04855 | 33025 ft | 546 kts | 127° |
| 2026-05-07 20:20 | 33.07069 | 69.12011 | 33027 ft | 546 kts | 127° |
| 2026-05-07 20:20 | 33.02447 | 69.19128 | 33035 ft | 546 kts | 127° |
| 2026-05-07 20:21 | 32.97789 | 69.26293 | 33022 ft | 546 kts | 127° |
| 2026-05-07 20:21 | 32.93133 | 69.33442 | 33000 ft | 546 kts | 127° |
| 2026-05-07 20:22 | 32.88471 | 69.40587 | 33012 ft | 546 kts | 127° |
| 2026-05-07 20:22 | 32.83803 | 69.47717 | 33019 ft | 546 kts | 127° |
| 2026-05-07 20:23 | 32.79118 | 69.54836 | 33016 ft | 546 kts | 127° |
| 2026-05-07 20:23 | 32.74426 | 69.61952 | 32998 ft | 546 kts | 127° |
| 2026-05-07 20:24 | 32.69775 | 69.69000 | 32992 ft | 546 kts | 127° |
| 2026-05-07 20:24 | 32.65083 | 69.76099 | 32994 ft | 545 kts | 127° |
| 2026-05-07 20:25 | 32.60390 | 69.83181 | 32963 ft | 546 kts | 127° |
| 2026-05-07 20:25 | 32.55679 | 69.90278 | 32936 ft | 547 kts | 127° |
| 2026-05-07 20:26 | 32.50974 | 69.97352 | 32904 ft | 546 kts | 127° |
| 2026-05-07 20:26 | 32.46276 | 70.04410 | 32896 ft | 546 kts | 127° |
| 2026-05-07 20:27 | 32.41564 | 70.11470 | 32888 ft | 547 kts | 127° |
| 2026-05-07 20:27 | 32.36842 | 70.18533 | 32871 ft | 547 kts | 127° |
| 2026-05-07 20:28 | 32.32205 | 70.25628 | 32840 ft | 548 kts | 127° |
| 2026-05-07 20:28 | 32.27596 | 70.32800 | 32826 ft | 547 kts | 127° |
| 2026-05-07 20:29 | 32.22977 | 70.39955 | 32808 ft | 547 kts | 127° |
| 2026-05-07 20:29 | 32.18353 | 70.47075 | 32813 ft | 546 kts | 127° |
| 2026-05-07 20:30 | 32.13752 | 70.54138 | 32802 ft | 546 kts | 127° |
| 2026-05-07 20:30 | 32.09128 | 70.61227 | 32815 ft | 545 kts | 127° |
| 2026-05-07 20:31 | 32.04505 | 70.68304 | 32792 ft | 544 kts | 127° |
| 2026-05-07 20:31 | 31.99878 | 70.75373 | 32803 ft | 544 kts | 127° |
| 2026-05-07 20:32 | 31.95258 | 70.82421 | 32796 ft | 543 kts | 127° |
| 2026-05-07 20:32 | 31.90770 | 70.89573 | 32810 ft | 543 kts | 121° |
| 2026-05-07 20:33 | 31.87165 | 70.97353 | 32806 ft | 542 kts | 116° |
| 2026-05-07 20:33 | 31.83708 | 71.05246 | 32805 ft | 542 kts | 116° |
| 2026-05-07 20:34 | 31.80202 | 71.13109 | 32792 ft | 543 kts | 116° |
| 2026-05-07 20:34 | 31.76658 | 71.20963 | 32799 ft | 543 kts | 116° |
| 2026-05-07 20:35 | 31.73129 | 71.28760 | 32783 ft | 544 kts | 116° |
| 2026-05-07 20:35 | 31.69575 | 71.36609 | 32793 ft | 544 kts | 116° |
| 2026-05-07 20:36 | 31.66616 | 71.43136 | 32804 ft | 545 kts | 116° |
| 2026-05-07 20:36 | 31.63039 | 71.51007 | 32793 ft | 545 kts | 116° |
| 2026-05-07 20:37 | 31.59456 | 71.58879 | 32812 ft | 546 kts | 117° |
| 2026-05-07 20:37 | 31.55872 | 71.66719 | 32795 ft | 545 kts | 117° |
| 2026-05-07 20:38 | 31.52305 | 71.74493 | 32780 ft | 544 kts | 117° |
| 2026-05-07 20:38 | 31.48714 | 71.82309 | 32786 ft | 544 kts | 117° |
| 2026-05-07 20:39 | 31.45124 | 71.90110 | 32808 ft | 544 kts | 117° |
| 2026-05-07 20:39 | 31.41528 | 71.97908 | 32817 ft | 544 kts | 117° |
| 2026-05-07 20:40 | 31.37926 | 72.05704 | 32804 ft | 544 kts | 117° |
| 2026-05-07 20:40 | 31.34326 | 72.13477 | 32782 ft | 543 kts | 117° |
| 2026-05-07 20:41 | 31.30754 | 72.21179 | 32792 ft | 542 kts | 117° |
| 2026-05-07 20:41 | 31.27149 | 72.28914 | 32818 ft | 541 kts | 119° |
| 2026-05-07 20:42 | 31.22985 | 72.36259 | 32806 ft | 541 kts | 125° |
| 2026-05-07 20:42 | 31.18591 | 72.43394 | 32814 ft | 540 kts | 126° |
| 2026-05-07 20:43 | 31.14227 | 72.50524 | 32808 ft | 539 kts | 125° |
| 2026-05-07 20:43 | 31.09915 | 72.57627 | 32801 ft | 539 kts | 125° |
| 2026-05-07 20:44 | 31.05572 | 72.64788 | 32824 ft | 541 kts | 125° |
| 2026-05-07 20:44 | 31.01219 | 72.71948 | 32816 ft | 541 kts | 125° |
| 2026-05-07 20:45 | 30.96853 | 72.79109 | 32810 ft | 542 kts | 125° |
| 2026-05-07 20:45 | 30.92481 | 72.86267 | 32815 ft | 542 kts | 125° |
| 2026-05-07 20:46 | 30.88096 | 72.93434 | 32798 ft | 543 kts | 125° |
| 2026-05-07 20:46 | 30.83727 | 73.00564 | 32824 ft | 544 kts | 125° |
| 2026-05-07 20:47 | 30.79323 | 73.07737 | 32806 ft | 544 kts | 126° |
| 2026-05-07 20:47 | 30.74912 | 73.14908 | 32814 ft | 544 kts | 126° |
| 2026-05-07 20:48 | 30.70499 | 73.22071 | 32806 ft | 544 kts | 126° |
| 2026-05-07 20:48 | 30.66112 | 73.29179 | 32802 ft | 545 kts | 125° |
| 2026-05-07 20:49 | 30.61695 | 73.36334 | 32819 ft | 546 kts | 126° |
| 2026-05-07 20:49 | 30.57262 | 73.43505 | 32812 ft | 546 kts | 126° |
| 2026-05-07 20:50 | 30.52826 | 73.50670 | 32805 ft | 547 kts | 126° |
| 2026-05-07 20:50 | 30.48377 | 73.57842 | 32808 ft | 547 kts | 126° |
| 2026-05-07 20:51 | 30.43928 | 73.65001 | 32801 ft | 547 kts | 126° |
| 2026-05-07 20:51 | 30.39472 | 73.72159 | 32814 ft | 548 kts | 126° |
| 2026-05-07 20:52 | 30.35002 | 73.79327 | 32809 ft | 548 kts | 126° |
| 2026-05-07 20:52 | 30.30531 | 73.86483 | 32809 ft | 548 kts | 126° |
| 2026-05-07 20:53 | 30.26052 | 73.93642 | 32807 ft | 548 kts | 126° |
| 2026-05-07 20:53 | 30.21600 | 74.00744 | 32826 ft | 548 kts | 126° |
| 2026-05-07 20:54 | 30.17124 | 74.07875 | 32815 ft | 548 kts | 126° |
| 2026-05-07 20:54 | 30.12637 | 74.15016 | 32805 ft | 548 kts | 126° |
| 2026-05-07 20:55 | 30.08149 | 74.22149 | 32812 ft | 548 kts | 126° |
| 2026-05-07 20:55 | 30.03659 | 74.29271 | 32812 ft | 548 kts | 126° |
| 2026-05-07 20:56 | 29.99167 | 74.36383 | 32815 ft | 548 kts | 126° |
| 2026-05-07 20:56 | 29.94676 | 74.43481 | 32817 ft | 549 kts | 126° |
| 2026-05-07 20:57 | 29.90158 | 74.50611 | 32813 ft | 550 kts | 126° |
| 2026-05-07 20:57 | 29.85670 | 74.57679 | 32813 ft | 551 kts | 126° |
| 2026-05-07 20:58 | 29.81131 | 74.64816 | 32810 ft | 551 kts | 126° |
| 2026-05-07 20:58 | 29.76594 | 74.71937 | 32799 ft | 552 kts | 126° |
| 2026-05-07 20:59 | 29.72048 | 74.79060 | 32807 ft | 552 kts | 126° |
| 2026-05-07 20:59 | 29.67487 | 74.86194 | 32810 ft | 553 kts | 126° |
| 2026-05-07 21:00 | 29.62947 | 74.93283 | 32803 ft | 554 kts | 126° |
| 2026-05-07 21:00 | 29.58374 | 75.00410 | 32808 ft | 554 kts | 126° |
| 2026-05-07 21:01 | 29.53796 | 75.07534 | 32797 ft | 554 kts | 126° |
| 2026-05-07 21:01 | 29.49208 | 75.14661 | 32803 ft | 554 kts | 126° |
| 2026-05-07 21:02 | 29.44613 | 75.21787 | 32807 ft | 554 kts | 126° |
| 2026-05-07 21:02 | 29.40020 | 75.28897 | 32807 ft | 554 kts | 126° |
| 2026-05-07 21:03 | 29.35427 | 75.35998 | 32808 ft | 554 kts | 126° |
| 2026-05-07 21:03 | 29.30836 | 75.43071 | 32827 ft | 553 kts | 126° |
| 2026-05-07 21:04 | 29.26239 | 75.50091 | 32814 ft | 553 kts | 126° |
| 2026-05-07 21:04 | 29.21614 | 75.57132 | 32807 ft | 553 kts | 126° |
| 2026-05-07 21:05 | 29.16984 | 75.64178 | 32813 ft | 553 kts | 126° |
| 2026-05-07 21:05 | 29.12358 | 75.71211 | 32809 ft | 553 kts | 126° |
| 2026-05-07 21:06 | 29.07725 | 75.78247 | 32811 ft | 553 kts | 127° |
| 2026-05-07 21:06 | 29.03124 | 75.85218 | 32804 ft | 553 kts | 126° |
| 2026-05-07 21:07 | 28.98484 | 75.92238 | 32810 ft | 553 kts | 126° |
| 2026-05-07 21:07 | 28.93844 | 75.99246 | 32814 ft | 553 kts | 126° |
| 2026-05-07 21:08 | 28.89195 | 76.06256 | 32819 ft | 553 kts | 127° |
| 2026-05-07 21:08 | 28.84542 | 76.13260 | 32817 ft | 553 kts | 127° |
| 2026-05-07 21:09 | 28.79891 | 76.20250 | 32804 ft | 553 kts | 127° |
| 2026-05-07 21:09 | 28.75239 | 76.27228 | 32816 ft | 553 kts | 127° |
| 2026-05-07 21:10 | 28.70613 | 76.34158 | 32822 ft | 552 kts | 127° |
| 2026-05-07 21:10 | 28.65957 | 76.41120 | 32822 ft | 552 kts | 127° |
| 2026-05-07 21:11 | 28.61291 | 76.48085 | 32822 ft | 552 kts | 127° |
| 2026-05-07 21:11 | 28.54294 | 76.58510 | 32823 ft | 552 kts | 127° |
| 2026-05-07 21:12 | 28.49621 | 76.65457 | 32831 ft | 552 kts | 127° |
| 2026-05-07 21:12 | 28.44953 | 76.72385 | 32835 ft | 552 kts | 127° |
| 2026-05-07 21:13 | 28.40308 | 76.79269 | 32836 ft | 552 kts | 127° |
| 2026-05-07 21:13 | 28.35632 | 76.86187 | 32840 ft | 552 kts | 127° |
| 2026-05-07 21:14 | 28.30945 | 76.93110 | 32809 ft | 552 kts | 127° |
| 2026-05-07 21:14 | 28.26258 | 77.00022 | 32833 ft | 552 kts | 127° |
| 2026-05-07 21:15 | 28.21574 | 77.06917 | 32841 ft | 552 kts | 127° |
| 2026-05-07 21:15 | 28.16913 | 77.13768 | 32836 ft | 552 kts | 127° |
| 2026-05-07 21:16 | 28.12210 | 77.20670 | 32836 ft | 552 kts | 128° |
| 2026-05-07 21:16 | 28.07506 | 77.27562 | 32838 ft | 553 kts | 127° |
| 2026-05-07 21:17 | 28.02823 | 77.34413 | 32819 ft | 553 kts | 128° |
| 2026-05-07 21:17 | 27.98114 | 77.41290 | 32831 ft | 553 kts | 128° |
| 2026-05-07 21:18 | 27.93393 | 77.48173 | 32832 ft | 553 kts | 128° |
| 2026-05-07 21:18 | 27.88664 | 77.55058 | 32833 ft | 554 kts | 128° |
| 2026-05-07 21:19 | 27.83935 | 77.61932 | 32842 ft | 554 kts | 128° |
| 2026-05-07 21:19 | 27.79230 | 77.68760 | 32834 ft | 553 kts | 128° |
| 2026-05-07 21:20 | 27.75271 | 77.74497 | 32833 ft | 553 kts | 128° |
| 2026-05-07 21:20 | 27.69776 | 77.82447 | 32835 ft | 552 kts | 128° |
| 2026-05-07 21:21 | 27.65818 | 77.88163 | 32837 ft | 551 kts | 128° |
| 2026-05-07 21:21 | 27.61126 | 77.94931 | 32839 ft | 550 kts | 128° |
| 2026-05-07 21:22 | 27.56403 | 78.01733 | 32846 ft | 549 kts | 128° |
| 2026-05-07 21:22 | 27.51696 | 78.08502 | 32826 ft | 548 kts | 128° |
| 2026-05-07 21:23 | 27.46987 | 78.15264 | 32829 ft | 548 kts | 128° |
| 2026-05-07 21:23 | 27.42280 | 78.22010 | 32833 ft | 548 kts | 128° |
| 2026-05-07 21:24 | 27.37594 | 78.28717 | 32836 ft | 548 kts | 128° |
| 2026-05-07 21:24 | 27.32867 | 78.35472 | 32834 ft | 549 kts | 129° |
| 2026-05-07 21:25 | 27.28138 | 78.42221 | 32809 ft | 550 kts | 129° |
| 2026-05-07 21:25 | 27.23394 | 78.48979 | 32836 ft | 552 kts | 129° |
| 2026-05-07 21:26 | 27.18629 | 78.55757 | 32837 ft | 554 kts | 129° |
| 2026-05-07 21:26 | 27.13843 | 78.62556 | 32834 ft | 556 kts | 129° |
| 2026-05-07 21:27 | 27.09039 | 78.69368 | 32860 ft | 557 kts | 129° |
| 2026-05-07 21:27 | 27.04251 | 78.76148 | 32839 ft | 556 kts | 129° |
| 2026-05-07 21:28 | 26.99448 | 78.82940 | 32828 ft | 555 kts | 129° |
| 2026-05-07 21:28 | 26.94632 | 78.89738 | 32842 ft | 555 kts | 129° |
| 2026-05-07 21:29 | 26.89823 | 78.96515 | 32847 ft | 555 kts | 129° |
| 2026-05-07 21:29 | 26.85036 | 79.03251 | 32843 ft | 555 kts | 129° |
| 2026-05-07 21:30 | 26.80215 | 79.10026 | 32861 ft | 556 kts | 130° |
| 2026-05-07 21:30 | 26.75394 | 79.16790 | 32828 ft | 556 kts | 130° |
| 2026-05-07 21:31 | 26.70562 | 79.23561 | 32845 ft | 556 kts | 130° |
| 2026-05-07 21:31 | 26.65720 | 79.30333 | 32848 ft | 557 kts | 130° |
| 2026-05-07 21:32 | 26.60894 | 79.37072 | 32854 ft | 558 kts | 130° |
| 2026-05-07 21:32 | 26.56031 | 79.43856 | 32869 ft | 559 kts | 130° |
| 2026-05-07 21:33 | 26.51167 | 79.50629 | 32854 ft | 559 kts | 130° |
| 2026-05-07 21:33 | 26.46335 | 79.57348 | 32835 ft | 558 kts | 130° |
| 2026-05-07 21:34 | 26.41462 | 79.64113 | 32847 ft | 559 kts | 130° |
| 2026-05-07 21:34 | 26.36590 | 79.70867 | 32850 ft | 559 kts | 130° |
| 2026-05-07 21:35 | 26.31707 | 79.77627 | 32856 ft | 559 kts | 130° |
| 2026-05-07 21:35 | 26.26817 | 79.84386 | 32864 ft | 559 kts | 130° |
| 2026-05-07 21:36 | 26.21930 | 79.91130 | 32850 ft | 559 kts | 131° |
| 2026-05-07 21:36 | 26.17073 | 79.97824 | 32837 ft | 558 kts | 131° |
| 2026-05-07 21:37 | 26.12180 | 80.04558 | 32839 ft | 559 kts | 131° |
| 2026-05-07 21:37 | 26.07278 | 80.11294 | 32838 ft | 560 kts | 131° |
| 2026-05-07 21:38 | 26.02399 | 80.17988 | 32851 ft | 560 kts | 131° |
| 2026-05-07 21:38 | 25.97482 | 80.24727 | 32842 ft | 560 kts | 131° |
| 2026-05-07 21:39 | 25.92651 | 80.31525 | 32795 ft | 560 kts | 129° |
| 2026-05-07 21:39 | 25.87941 | 80.38425 | 32836 ft | 560 kts | 129° |
| 2026-05-07 21:40 | 25.83234 | 80.45316 | 32833 ft | 559 kts | 129° |
| 2026-05-07 21:40 | 25.78535 | 80.52131 | 32831 ft | 559 kts | 129° |
| 2026-05-07 21:41 | 25.73794 | 80.58973 | 32841 ft | 558 kts | 130° |
| 2026-05-07 21:41 | 25.69063 | 80.65790 | 32835 ft | 557 kts | 130° |
| 2026-05-07 21:42 | 25.64330 | 80.72604 | 32808 ft | 556 kts | 130° |
| 2026-05-07 21:42 | 25.59614 | 80.79386 | 32825 ft | 555 kts | 130° |
| 2026-05-07 21:43 | 25.54903 | 80.86150 | 32830 ft | 555 kts | 130° |
| 2026-05-07 21:43 | 25.50177 | 80.92926 | 32845 ft | 555 kts | 130° |
| 2026-05-07 21:44 | 25.45479 | 80.99652 | 32831 ft | 555 kts | 130° |
| 2026-05-07 21:44 | 25.40745 | 81.06420 | 32836 ft | 555 kts | 130° |
| 2026-05-07 21:45 | 25.36014 | 81.13175 | 32808 ft | 555 kts | 131° |
| 2026-05-07 21:45 | 25.31275 | 81.19933 | 32834 ft | 555 kts | 131° |
| 2026-05-07 21:46 | 25.26543 | 81.26669 | 32835 ft | 555 kts | 131° |
| 2026-05-07 21:46 | 25.21810 | 81.33400 | 32839 ft | 555 kts | 131° |
| 2026-05-07 21:47 | 25.17250 | 81.40258 | 32817 ft | 556 kts | 120° |
| 2026-05-07 21:47 | 25.15892 | 81.44261 | 32841 ft | 560 kts | 103° |
| 2026-05-07 21:47 | 25.15431 | 81.48528 | 32840 ft | 561 kts | 89° |
| 2026-05-07 21:48 | 25.15861 | 81.52744 | 32832 ft | 558 kts | 73° |
| 2026-05-07 21:48 | 25.16897 | 81.56855 | 32854 ft | 556 kts | 72° |
| 2026-05-07 21:48 | 25.18976 | 81.65130 | 32844 ft | 561 kts | 73° |
| 2026-05-07 21:49 | 25.20937 | 81.73501 | 32843 ft | 565 kts | 74° |
| 2026-05-07 21:49 | 25.22851 | 81.81963 | 32844 ft | 568 kts | 74° |
| 2026-05-07 21:50 | 25.24762 | 81.90438 | 32840 ft | 569 kts | 74° |
| 2026-05-07 21:50 | 25.26672 | 81.98876 | 32836 ft | 569 kts | 74° |
| 2026-05-07 21:51 | 25.28593 | 82.07374 | 32840 ft | 568 kts | 74° |
| 2026-05-07 21:51 | 25.30499 | 82.15839 | 32841 ft | 567 kts | 74° |
| 2026-05-07 21:52 | 25.32399 | 82.24296 | 32845 ft | 566 kts | 75° |
| 2026-05-07 21:52 | 25.34237 | 82.32744 | 32844 ft | 565 kts | 75° |
| 2026-05-07 21:53 | 25.36009 | 82.41206 | 32856 ft | 564 kts | 76° |
| 2026-05-07 21:53 | 25.37782 | 82.49658 | 32848 ft | 564 kts | 76° |
| 2026-05-07 21:54 | 25.39563 | 82.58114 | 32855 ft | 565 kts | 76° |
| 2026-05-07 21:54 | 25.41334 | 82.66536 | 32855 ft | 566 kts | 76° |
| 2026-05-07 21:55 | 25.43111 | 82.75022 | 32859 ft | 567 kts | 76° |
| 2026-05-07 21:55 | 25.44368 | 82.83619 | 32849 ft | 567 kts | 90° |
| 2026-05-07 21:56 | 25.43433 | 82.92243 | 32871 ft | 563 kts | 108° |
| 2026-05-07 21:56 | 25.40769 | 83.00347 | 32859 ft | 561 kts | 114° |
| 2026-05-07 21:57 | 25.37938 | 83.08412 | 32858 ft | 563 kts | 114° |
| 2026-05-07 21:57 | 25.35169 | 83.16521 | 32866 ft | 564 kts | 114° |
| 2026-05-07 21:58 | 25.32437 | 83.24670 | 32859 ft | 565 kts | 114° |
| 2026-05-07 21:58 | 25.29708 | 83.32816 | 32857 ft | 565 kts | 114° |
| 2026-05-07 21:59 | 25.26985 | 83.40905 | 32857 ft | 565 kts | 114° |
| 2026-05-07 21:59 | 25.24238 | 83.49036 | 32861 ft | 564 kts | 114° |
| 2026-05-07 22:00 | 25.21489 | 83.57154 | 32868 ft | 563 kts | 114° |
| 2026-05-07 22:00 | 25.18740 | 83.65255 | 32860 ft | 562 kts | 114° |
| 2026-05-07 22:01 | 25.15992 | 83.73338 | 32859 ft | 561 kts | 114° |
| 2026-05-07 22:01 | 25.13243 | 83.81408 | 32870 ft | 561 kts | 114° |
| 2026-05-07 22:02 | 25.10499 | 83.89445 | 32872 ft | 560 kts | 114° |
| 2026-05-07 22:02 | 25.07750 | 83.97482 | 32869 ft | 559 kts | 115° |
| 2026-05-07 22:03 | 25.05015 | 84.05462 | 32869 ft | 559 kts | 115° |
| 2026-05-07 22:03 | 25.02256 | 84.13495 | 32865 ft | 559 kts | 115° |
| 2026-05-07 22:04 | 24.99962 | 84.20162 | 32867 ft | 559 kts | 115° |
| 2026-05-07 22:04 | 24.97195 | 84.28190 | 32866 ft | 560 kts | 115° |
| 2026-05-07 22:05 | 24.94426 | 84.36207 | 32866 ft | 560 kts | 115° |
| 2026-05-07 22:05 | 24.91654 | 84.44219 | 32840 ft | 560 kts | 116° |
| 2026-05-07 22:06 | 24.88874 | 84.52237 | 32866 ft | 560 kts | 116° |
| 2026-05-07 22:06 | 24.86106 | 84.60201 | 32875 ft | 560 kts | 116° |
| 2026-05-07 22:07 | 24.83316 | 84.68215 | 32873 ft | 561 kts | 116° |
| 2026-05-07 22:07 | 24.80519 | 84.76236 | 32880 ft | 561 kts | 116° |
| 2026-05-07 22:08 | 24.77715 | 84.84262 | 32884 ft | 561 kts | 116° |
| 2026-05-07 22:08 | 24.74844 | 84.92232 | 32882 ft | 557 kts | 120° |
| 2026-05-07 22:09 | 24.71103 | 84.99600 | 32882 ft | 547 kts | 131° |
| 2026-05-07 22:09 | 24.66771 | 85.06473 | 32873 ft | 546 kts | 131° |
| 2026-05-07 22:10 | 24.62467 | 85.13346 | 32885 ft | 546 kts | 131° |
| 2026-05-07 22:10 | 24.58195 | 85.20247 | 32889 ft | 545 kts | 131° |
| 2026-05-07 22:11 | 24.53941 | 85.27141 | 32902 ft | 545 kts | 131° |
| 2026-05-07 22:11 | 24.49682 | 85.34032 | 32909 ft | 545 kts | 131° |
| 2026-05-07 22:12 | 24.45440 | 85.40879 | 32904 ft | 545 kts | 131° |
| 2026-05-07 22:12 | 24.41169 | 85.47760 | 32912 ft | 545 kts | 131° |
| 2026-05-07 22:13 | 24.36894 | 85.54640 | 32922 ft | 545 kts | 131° |
| 2026-05-07 22:13 | 24.32615 | 85.61515 | 32925 ft | 545 kts | 131° |
| 2026-05-07 22:14 | 24.28336 | 85.68380 | 32943 ft | 545 kts | 131° |
| 2026-05-07 22:14 | 24.24043 | 85.75258 | 32946 ft | 546 kts | 131° |
| 2026-05-07 22:15 | 24.19774 | 85.82088 | 32951 ft | 547 kts | 131° |
| 2026-05-07 22:15 | 24.15467 | 85.88971 | 32951 ft | 548 kts | 131° |
| 2026-05-07 22:16 | 24.11148 | 85.95864 | 32937 ft | 549 kts | 131° |
| 2026-05-07 22:16 | 24.06823 | 86.02757 | 32952 ft | 549 kts | 131° |
| 2026-05-07 22:17 | 24.02503 | 86.09632 | 32956 ft | 549 kts | 131° |
| 2026-05-07 22:17 | 23.98170 | 86.16517 | 32935 ft | 548 kts | 131° |
| 2026-05-07 22:18 | 23.91712 | 86.26763 | 32943 ft | 546 kts | 132° |
| 2026-05-07 22:19 | 23.87398 | 86.33597 | 32945 ft | 546 kts | 132° |
| 2026-05-07 22:19 | 23.83085 | 86.40420 | 32933 ft | 545 kts | 132° |
| 2026-05-07 22:20 | 23.78910 | 86.47372 | 32931 ft | 548 kts | 129° |
| 2026-05-07 22:20 | 23.74963 | 86.54527 | 32933 ft | 549 kts | 128° |
| 2026-05-07 22:21 | 23.71060 | 86.61631 | 32885 ft | 548 kts | 128° |
| 2026-05-07 22:21 | 23.67115 | 86.68734 | 32909 ft | 547 kts | 128° |
| 2026-05-07 22:22 | 23.63158 | 86.75820 | 32919 ft | 547 kts | 128° |
| 2026-05-07 22:22 | 23.59192 | 86.82911 | 32906 ft | 547 kts | 128° |
| 2026-05-07 22:23 | 23.55225 | 86.90005 | 32908 ft | 547 kts | 128° |
| 2026-05-07 22:23 | 23.51287 | 86.97037 | 32902 ft | 547 kts | 128° |
| 2026-05-07 22:24 | 23.47316 | 87.04118 | 32903 ft | 547 kts | 128° |
| 2026-05-07 22:24 | 23.43356 | 87.11195 | 32915 ft | 547 kts | 128° |
| 2026-05-07 22:25 | 23.39394 | 87.18283 | 32885 ft | 547 kts | 128° |
| 2026-05-07 22:25 | 23.35437 | 87.25352 | 32895 ft | 547 kts | 128° |
| 2026-05-07 22:26 | 23.31500 | 87.32372 | 32900 ft | 546 kts | 128° |
| 2026-05-07 22:26 | 23.27534 | 87.39433 | 32894 ft | 546 kts | 128° |
| 2026-05-07 22:27 | 23.23566 | 87.46487 | 32890 ft | 546 kts | 128° |
| 2026-05-07 22:27 | 23.19619 | 87.53494 | 32890 ft | 546 kts | 128° |
| 2026-05-07 22:28 | 23.15650 | 87.60530 | 32889 ft | 546 kts | 128° |
| 2026-05-07 22:28 | 23.11675 | 87.67572 | 32888 ft | 546 kts | 128° |
| 2026-05-07 22:29 | 23.07701 | 87.74599 | 32863 ft | 545 kts | 128° |
| 2026-05-07 22:29 | 23.03729 | 87.81610 | 32876 ft | 544 kts | 128° |
| 2026-05-07 22:30 | 22.99765 | 87.88598 | 32880 ft | 543 kts | 128° |
| 2026-05-07 22:30 | 22.95806 | 87.95570 | 32883 ft | 542 kts | 128° |
| 2026-05-07 22:31 | 22.91872 | 88.02489 | 32876 ft | 542 kts | 128° |
| 2026-05-07 22:31 | 22.87914 | 88.09439 | 32867 ft | 541 kts | 128° |
| 2026-05-07 22:32 | 22.83951 | 88.16391 | 32872 ft | 540 kts | 128° |
| 2026-05-07 22:32 | 22.79993 | 88.23323 | 32865 ft | 540 kts | 128° |
| 2026-05-07 22:33 | 22.76044 | 88.30230 | 32845 ft | 539 kts | 128° |
| 2026-05-07 22:33 | 22.72106 | 88.37110 | 32855 ft | 539 kts | 128° |
| 2026-05-07 22:34 | 22.68146 | 88.44017 | 32859 ft | 539 kts | 128° |
| 2026-05-07 22:34 | 22.63921 | 88.50677 | 32852 ft | 535 kts | 132° |
| 2026-05-07 22:35 | 22.59557 | 88.57220 | 32865 ft | 536 kts | 132° |
| 2026-05-07 22:35 | 22.55222 | 88.63738 | 32860 ft | 536 kts | 132° |
| 2026-05-07 22:36 | 22.50877 | 88.70315 | 32864 ft | 537 kts | 131° |
| 2026-05-07 22:36 | 22.46558 | 88.76859 | 32865 ft | 537 kts | 132° |
| 2026-05-07 22:37 | 22.42214 | 88.83429 | 32865 ft | 537 kts | 131° |
| 2026-05-07 22:37 | 22.37862 | 88.89998 | 32861 ft | 537 kts | 131° |
| 2026-05-07 22:38 | 22.33510 | 88.96563 | 32870 ft | 537 kts | 131° |
| 2026-05-07 22:38 | 22.29169 | 89.03124 | 32865 ft | 537 kts | 131° |
| 2026-05-07 22:39 | 22.24991 | 89.09836 | 32866 ft | 539 kts | 129° |
| 2026-05-07 22:39 | 22.20880 | 89.16619 | 32865 ft | 539 kts | 129° |
| 2026-05-07 22:40 | 22.16769 | 89.23335 | 32862 ft | 539 kts | 129° |
| 2026-05-07 22:40 | 22.12611 | 89.30066 | 32863 ft | 538 kts | 129° |
| 2026-05-07 22:41 | 22.08454 | 89.36773 | 32864 ft | 538 kts | 130° |
| 2026-05-07 22:41 | 22.04290 | 89.43485 | 32863 ft | 538 kts | 130° |
| 2026-05-07 22:42 | 22.00131 | 89.50185 | 32862 ft | 538 kts | 130° |
| 2026-05-07 22:42 | 21.95971 | 89.56879 | 32864 ft | 537 kts | 130° |
| 2026-05-07 22:43 | 21.91805 | 89.63574 | 32860 ft | 537 kts | 130° |
| 2026-05-07 22:43 | 21.87661 | 89.70226 | 32865 ft | 537 kts | 130° |
| 2026-05-07 22:44 | 21.83499 | 89.76900 | 32867 ft | 537 kts | 130° |
| 2026-05-07 22:44 | 21.79324 | 89.83584 | 32846 ft | 537 kts | 129° |
| 2026-05-07 22:45 | 21.75154 | 89.90253 | 32857 ft | 536 kts | 129° |
| 2026-05-07 22:45 | 21.70984 | 89.96914 | 32868 ft | 536 kts | 129° |
| 2026-05-07 22:46 | 21.66848 | 90.03513 | 32863 ft | 535 kts | 129° |
| 2026-05-07 22:46 | 21.62681 | 90.10153 | 32864 ft | 535 kts | 129° |
| 2026-05-07 22:47 | 21.58518 | 90.16779 | 32863 ft | 534 kts | 130° |
| 2026-05-07 22:47 | 21.54355 | 90.23397 | 32871 ft | 534 kts | 130° |
| 2026-05-07 22:48 | 21.50215 | 90.29971 | 32871 ft | 534 kts | 130° |
| 2026-05-07 22:48 | 21.46053 | 90.36571 | 32845 ft | 534 kts | 129° |
| 2026-05-07 22:49 | 21.41889 | 90.43168 | 32857 ft | 533 kts | 129° |
| 2026-05-07 22:49 | 21.37726 | 90.49756 | 32860 ft | 533 kts | 129° |
| 2026-05-07 22:50 | 21.33559 | 90.56342 | 32864 ft | 532 kts | 129° |
| 2026-05-07 22:50 | 21.29397 | 90.62917 | 32866 ft | 533 kts | 129° |
| 2026-05-07 22:51 | 21.25259 | 90.69452 | 32860 ft | 533 kts | 129° |
| 2026-05-07 22:51 | 21.21090 | 90.76031 | 32863 ft | 533 kts | 129° |
| 2026-05-07 22:52 | 21.17621 | 90.81498 | 32862 ft | 533 kts | 129° |
| 2026-05-07 22:52 | 21.13446 | 90.88070 | 32847 ft | 533 kts | 129° |
| 2026-05-07 22:53 | 21.09272 | 90.94634 | 32852 ft | 533 kts | 129° |
| 2026-05-07 22:53 | 21.05103 | 91.01182 | 32861 ft | 532 kts | 129° |
| 2026-05-07 22:54 | 21.00931 | 91.07728 | 32858 ft | 532 kts | 130° |
| 2026-05-07 22:54 | 20.96753 | 91.14275 | 32854 ft | 532 kts | 130° |
| 2026-05-07 22:55 | 20.92579 | 91.20806 | 32853 ft | 531 kts | 130° |
| 2026-05-07 22:55 | 20.88407 | 91.27329 | 32855 ft | 531 kts | 130° |
| 2026-05-07 22:56 | 20.84233 | 91.33847 | 32853 ft | 531 kts | 130° |
| 2026-05-07 22:56 | 20.80087 | 91.40314 | 32837 ft | 531 kts | 130° |
| 2026-05-07 22:57 | 20.75911 | 91.46821 | 32850 ft | 529 kts | 129° |
| 2026-05-07 22:57 | 20.71748 | 91.53300 | 32848 ft | 528 kts | 129° |
| 2026-05-07 22:58 | 20.67592 | 91.59761 | 32852 ft | 527 kts | 129° |
| 2026-05-07 22:58 | 20.63434 | 91.66216 | 32853 ft | 527 kts | 129° |
| 2026-05-07 22:59 | 20.59282 | 91.72656 | 32851 ft | 526 kts | 129° |
| 2026-05-07 22:59 | 20.55129 | 91.79091 | 32849 ft | 526 kts | 129° |
| 2026-05-07 23:00 | 20.50991 | 91.85495 | 32850 ft | 527 kts | 129° |
| 2026-05-07 23:00 | 20.46831 | 91.91928 | 32858 ft | 527 kts | 129° |
| 2026-05-07 23:01 | 20.42663 | 91.98366 | 32854 ft | 527 kts | 129° |
| 2026-05-07 23:01 | 20.38480 | 92.04768 | 32848 ft | 527 kts | 130° |
| 2026-05-07 23:02 | 20.34256 | 92.11148 | 32846 ft | 527 kts | 130° |
| 2026-05-07 23:02 | 20.30023 | 92.17532 | 32843 ft | 527 kts | 130° |
| 2026-05-07 23:03 | 20.25800 | 92.23910 | 32842 ft | 527 kts | 130° |
| 2026-05-07 23:03 | 20.21572 | 92.30296 | 32826 ft | 527 kts | 130° |
| 2026-05-07 23:04 | 20.17371 | 92.36634 | 32825 ft | 527 kts | 130° |
| 2026-05-07 23:04 | 20.13144 | 92.43005 | 32834 ft | 527 kts | 130° |
| 2026-05-07 23:05 | 20.08914 | 92.49372 | 32833 ft | 526 kts | 130° |
| 2026-05-07 23:05 | 20.04688 | 92.55726 | 32835 ft | 526 kts | 130° |
| 2026-05-07 23:06 | 20.00464 | 92.62071 | 32828 ft | 525 kts | 130° |
| 2026-05-07 23:06 | 19.96244 | 92.68403 | 32822 ft | 525 kts | 129° |
| 2026-05-07 23:07 | 19.92017 | 92.74737 | 32830 ft | 524 kts | 129° |
| 2026-05-07 23:07 | 19.87790 | 92.81066 | 32835 ft | 524 kts | 129° |
| 2026-05-07 23:08 | 19.83557 | 92.87396 | 32835 ft | 524 kts | 129° |
| 2026-05-07 23:08 | 19.79332 | 92.93709 | 32833 ft | 524 kts | 129° |
| 2026-05-07 23:09 | 19.75113 | 93.00005 | 32833 ft | 523 kts | 129° |
| 2026-05-07 23:09 | 19.70918 | 93.06259 | 32824 ft | 523 kts | 129° |
| 2026-05-07 23:10 | 19.66700 | 93.12541 | 32832 ft | 522 kts | 129° |
| 2026-05-07 23:10 | 19.62483 | 93.18815 | 32833 ft | 522 kts | 129° |
| 2026-05-07 23:11 | 19.58249 | 93.25107 | 32834 ft | 522 kts | 129° |
| 2026-05-07 23:11 | 19.54021 | 93.31384 | 32940 ft | 525 kts | 129° |
| 2026-05-07 23:11 | 19.51917 | 93.34503 | 33162 ft | 526 kts | 129° |
| 2026-05-07 23:12 | 19.49793 | 93.37654 | 33493 ft | 524 kts | 129° |
| 2026-05-07 23:12 | 19.47675 | 93.40794 | 33844 ft | 523 kts | 129° |
| 2026-05-07 23:12 | 19.45560 | 93.43930 | 34140 ft | 521 kts | 129° |
| 2026-05-07 23:12 | 19.43455 | 93.47047 | 34434 ft | 519 kts | 129° |
| 2026-05-07 23:13 | 19.41354 | 93.50156 | 34716 ft | 518 kts | 129° |
| 2026-05-07 23:13 | 19.37145 | 93.56377 | 34836 ft | 519 kts | 129° |
| 2026-05-07 23:14 | 19.32968 | 93.62546 | 34834 ft | 517 kts | 129° |
| 2026-05-07 23:14 | 19.28781 | 93.68725 | 34834 ft | 516 kts | 129° |
| 2026-05-07 23:15 | 19.24601 | 93.74887 | 34834 ft | 515 kts | 129° |
| 2026-05-07 23:15 | 19.20425 | 93.81036 | 34836 ft | 514 kts | 129° |
| 2026-05-07 23:16 | 19.16243 | 93.87187 | 34836 ft | 516 kts | 129° |
| 2026-05-07 23:16 | 19.12044 | 93.93357 | 34844 ft | 518 kts | 129° |
| 2026-05-07 23:17 | 19.07826 | 93.99549 | 34848 ft | 520 kts | 129° |
| 2026-05-07 23:17 | 19.03584 | 94.05772 | 34845 ft | 521 kts | 129° |
| 2026-05-07 23:18 | 18.99342 | 94.11988 | 34849 ft | 522 kts | 129° |
| 2026-05-07 23:18 | 18.95086 | 94.18220 | 34850 ft | 522 kts | 129° |
| 2026-05-07 23:19 | 18.90864 | 94.24393 | 34850 ft | 521 kts | 129° |
| 2026-05-07 23:19 | 18.86620 | 94.30594 | 34855 ft | 520 kts | 129° |
| 2026-05-07 23:20 | 18.82383 | 94.36779 | 34852 ft | 519 kts | 129° |
| 2026-05-07 23:20 | 18.78151 | 94.42950 | 34868 ft | 518 kts | 129° |
| 2026-05-07 23:21 | 18.73920 | 94.49112 | 34861 ft | 518 kts | 129° |
| 2026-05-07 23:21 | 18.69695 | 94.55260 | 34866 ft | 517 kts | 129° |
| 2026-05-07 23:22 | 18.65486 | 94.61382 | 34867 ft | 517 kts | 129° |
| 2026-05-07 23:22 | 18.61263 | 94.67516 | 34879 ft | 516 kts | 129° |
| 2026-05-07 23:23 | 18.57042 | 94.73654 | 34876 ft | 517 kts | 128° |
| 2026-05-07 23:23 | 18.52926 | 94.79896 | 34876 ft | 519 kts | 127° |
| 2026-05-07 23:24 | 18.48878 | 94.86131 | 34871 ft | 518 kts | 127° |
| 2026-05-07 23:24 | 18.44784 | 94.92394 | 34862 ft | 519 kts | 127° |
| 2026-05-07 23:25 | 18.40666 | 94.98652 | 34855 ft | 519 kts | 127° |
| 2026-05-07 23:25 | 18.36548 | 95.04906 | 34844 ft | 519 kts | 127° |
| 2026-05-07 23:26 | 18.32462 | 95.11113 | 34853 ft | 518 kts | 127° |
| 2026-05-07 23:26 | 18.28327 | 95.17327 | 34846 ft | 517 kts | 128° |
| 2026-05-07 23:27 | 18.21859 | 95.26391 | 34839 ft | 516 kts | 129° |
| 2026-05-07 23:27 | 18.17534 | 95.32410 | 34840 ft | 515 kts | 129° |
| 2026-05-07 23:28 | 18.13239 | 95.38435 | 34833 ft | 515 kts | 129° |
| 2026-05-07 23:28 | 18.08953 | 95.44463 | 34837 ft | 515 kts | 129° |
| 2026-05-07 23:29 | 18.04659 | 95.50499 | 34836 ft | 515 kts | 129° |
| 2026-05-07 23:29 | 18.00396 | 95.56482 | 34831 ft | 515 kts | 129° |
| 2026-05-07 23:30 | 17.96089 | 95.62519 | 34836 ft | 514 kts | 129° |
| 2026-05-07 23:30 | 17.91802 | 95.68523 | 34838 ft | 514 kts | 129° |
| 2026-05-07 23:31 | 17.87511 | 95.74527 | 34836 ft | 513 kts | 129° |
| 2026-05-07 23:31 | 17.83222 | 95.80523 | 34840 ft | 513 kts | 129° |
| 2026-05-07 23:32 | 17.78930 | 95.86517 | 34844 ft | 513 kts | 129° |
| 2026-05-07 23:32 | 17.74668 | 95.92465 | 34842 ft | 513 kts | 129° |
| 2026-05-07 23:33 | 17.70379 | 95.98445 | 34837 ft | 513 kts | 129° |
| 2026-05-07 23:33 | 17.66085 | 96.04426 | 34848 ft | 513 kts | 129° |
| 2026-05-07 23:34 | 17.61794 | 96.10398 | 34849 ft | 513 kts | 128° |
| 2026-05-07 23:34 | 17.58222 | 96.15365 | 34849 ft | 512 kts | 128° |
| 2026-05-07 23:35 | 17.53230 | 96.22301 | 34850 ft | 512 kts | 128° |
| 2026-05-07 23:35 | 17.49631 | 96.27296 | 34850 ft | 512 kts | 129° |
| 2026-05-07 23:36 | 17.45366 | 96.33212 | 34849 ft | 512 kts | 129° |
| 2026-05-07 23:36 | 17.41063 | 96.39176 | 34847 ft | 512 kts | 129° |
| 2026-05-07 23:37 | 17.36765 | 96.45128 | 34849 ft | 512 kts | 129° |
| 2026-05-07 23:37 | 17.32472 | 96.51068 | 34846 ft | 512 kts | 128° |
| 2026-05-07 23:38 | 17.28145 | 96.56988 | 34847 ft | 511 kts | 129° |
| 2026-05-07 23:38 | 17.23813 | 96.62832 | 34852 ft | 511 kts | 129° |
| 2026-05-07 23:39 | 17.19451 | 96.68714 | 34850 ft | 511 kts | 129° |
| 2026-05-07 23:39 | 17.15101 | 96.74589 | 34850 ft | 511 kts | 129° |
| 2026-05-07 23:40 | 17.10749 | 96.80467 | 34856 ft | 510 kts | 129° |
| 2026-05-07 23:40 | 17.06428 | 96.86302 | 34854 ft | 510 kts | 129° |
| 2026-05-07 23:41 | 17.02076 | 96.92168 | 34851 ft | 510 kts | 128° |
| 2026-05-07 23:41 | 16.97732 | 96.98022 | 34849 ft | 509 kts | 129° |
| 2026-05-07 23:42 | 16.93387 | 97.03868 | 34854 ft | 509 kts | 129° |
| 2026-05-07 23:42 | 16.89043 | 97.09708 | 34847 ft | 509 kts | 128° |
| 2026-05-07 23:43 | 16.84706 | 97.15539 | 34861 ft | 508 kts | 128° |
| 2026-05-07 23:43 | 16.80370 | 97.21361 | 34846 ft | 507 kts | 128° |
| 2026-05-07 23:44 | 16.76061 | 97.27140 | 34849 ft | 507 kts | 128° |
| 2026-05-07 23:44 | 16.71723 | 97.32954 | 34857 ft | 507 kts | 128° |
| 2026-05-07 23:45 | 16.67392 | 97.38756 | 34862 ft | 507 kts | 128° |
| 2026-05-07 23:45 | 16.63048 | 97.44568 | 34853 ft | 507 kts | 128° |
| 2026-05-07 23:46 | 16.58740 | 97.50329 | 34865 ft | 507 kts | 128° |
| 2026-05-07 23:46 | 16.54401 | 97.56127 | 34872 ft | 507 kts | 128° |
| 2026-05-07 23:47 | 16.50068 | 97.61912 | 34854 ft | 505 kts | 128° |
| 2026-05-07 23:47 | 16.45742 | 97.67683 | 34856 ft | 504 kts | 128° |
| 2026-05-07 23:48 | 16.41430 | 97.73432 | 34859 ft | 503 kts | 128° |
| 2026-05-07 23:48 | 16.37055 | 97.79117 | 34857 ft | 501 kts | 132° |
| 2026-05-07 23:49 | 16.31987 | 97.84077 | 34872 ft | 500 kts | 140° |
| 2026-05-07 23:49 | 16.26711 | 97.88739 | 34862 ft | 500 kts | 140° |
| 2026-05-07 23:50 | 16.21416 | 97.93452 | 34857 ft | 500 kts | 139° |
| 2026-05-07 23:50 | 16.16139 | 97.98190 | 34877 ft | 500 kts | 139° |
| 2026-05-07 23:51 | 16.10877 | 98.02925 | 34863 ft | 500 kts | 139° |
| 2026-05-07 23:51 | 16.05616 | 98.07655 | 34863 ft | 499 kts | 139° |
| 2026-05-07 23:52 | 16.00357 | 98.12377 | 34882 ft | 499 kts | 139° |
| 2026-05-07 23:52 | 15.95099 | 98.17093 | 34882 ft | 499 kts | 139° |
| 2026-05-07 23:53 | 15.89878 | 98.21773 | 34880 ft | 499 kts | 139° |
| 2026-05-07 23:53 | 15.84621 | 98.26482 | 34879 ft | 499 kts | 139° |
| 2026-05-07 23:54 | 15.79371 | 98.31182 | 34881 ft | 498 kts | 139° |
| 2026-05-07 23:54 | 15.74129 | 98.35873 | 34897 ft | 497 kts | 139° |
| 2026-05-07 23:55 | 15.68886 | 98.40559 | 34914 ft | 496 kts | 139° |
| 2026-05-07 23:55 | 15.63687 | 98.45203 | 34900 ft | 496 kts | 139° |
| 2026-05-07 23:56 | 15.58445 | 98.49883 | 34924 ft | 497 kts | 139° |
| 2026-05-07 23:56 | 15.53201 | 98.54561 | 34932 ft | 497 kts | 139° |
| 2026-05-07 23:57 | 15.48029 | 98.59313 | 34929 ft | 496 kts | 134° |
| 2026-05-07 23:57 | 15.43546 | 98.64746 | 34946 ft | 496 kts | 128° |
| 2026-05-07 23:58 | 15.39236 | 98.70353 | 34940 ft | 497 kts | 128° |
| 2026-05-07 23:58 | 15.34894 | 98.75949 | 34935 ft | 499 kts | 128° |
| 2026-05-07 23:59 | 15.30547 | 98.81505 | 34940 ft | 501 kts | 128° |
| 2026-05-07 23:59 | 15.26148 | 98.87114 | 34935 ft | 502 kts | 128° |
| 2026-05-08 00:00 | 15.21733 | 98.92737 | 34940 ft | 504 kts | 128° |
| 2026-05-08 00:00 | 15.17306 | 98.98376 | 34924 ft | 504 kts | 128° |
| 2026-05-08 00:01 | 15.12875 | 99.04017 | 34927 ft | 504 kts | 128° |
| 2026-05-08 00:01 | 15.08450 | 99.09645 | 34891 ft | 504 kts | 128° |
| 2026-05-08 00:02 | 15.04021 | 99.15276 | 34920 ft | 504 kts | 128° |
| 2026-05-08 00:02 | 14.99611 | 99.20880 | 34910 ft | 505 kts | 128° |
| 2026-05-08 00:03 | 14.95171 | 99.26513 | 34902 ft | 505 kts | 128° |
| 2026-05-08 00:03 | 14.90727 | 99.32152 | 34902 ft | 506 kts | 128° |
| 2026-05-08 00:04 | 14.86273 | 99.37798 | 34901 ft | 506 kts | 128° |
| 2026-05-08 00:04 | 14.81811 | 99.43441 | 34890 ft | 506 kts | 128° |
| 2026-05-08 00:05 | 14.77377 | 99.49033 | 34892 ft | 506 kts | 128° |
| 2026-05-08 00:05 | 14.72909 | 99.54666 | 34880 ft | 507 kts | 128° |
| 2026-05-08 00:06 | 14.68442 | 99.60297 | 34881 ft | 507 kts | 128° |
| 2026-05-08 00:06 | 14.63965 | 99.65939 | 34882 ft | 506 kts | 128° |
| 2026-05-08 00:07 | 14.59499 | 99.71563 | 34875 ft | 506 kts | 128° |
| 2026-05-08 00:07 | 14.55027 | 99.77189 | 34873 ft | 506 kts | 128° |
| 2026-05-08 00:08 | 14.50554 | 99.82814 | 34873 ft | 506 kts | 128° |
| 2026-05-08 00:08 | 14.46085 | 99.88431 | 34872 ft | 506 kts | 128° |
| 2026-05-08 00:09 | 14.41650 | 99.94003 | 34874 ft | 506 kts | 128° |
| 2026-05-08 00:09 | 14.37178 | 99.99635 | 34875 ft | 506 kts | 128° |
| 2026-05-08 00:10 | 14.32720 | 100.05250 | 34878 ft | 505 kts | 128° |
| 2026-05-08 00:10 | 14.28264 | 100.10859 | 34873 ft | 504 kts | 128° |
| 2026-05-08 00:11 | 14.23842 | 100.16419 | 34873 ft | 504 kts | 128° |
| 2026-05-08 00:11 | 14.19395 | 100.22006 | 34876 ft | 503 kts | 128° |
| 2026-05-08 00:12 | 14.14961 | 100.27573 | 34876 ft | 502 kts | 128° |
| 2026-05-08 00:12 | 14.10535 | 100.33127 | 34875 ft | 501 kts | 128° |
| 2026-05-08 00:13 | 14.06111 | 100.38674 | 34879 ft | 500 kts | 128° |
| 2026-05-08 00:13 | 14.01696 | 100.44207 | 34881 ft | 500 kts | 128° |
| 2026-05-08 00:14 | 13.97283 | 100.49735 | 34884 ft | 499 kts | 128° |
| 2026-05-08 00:14 | 13.92896 | 100.55226 | 34885 ft | 499 kts | 128° |
| 2026-05-08 00:15 | 13.88744 | 100.60940 | 34886 ft | 498 kts | 121° |
| 2026-05-08 00:15 | 13.85527 | 100.67246 | 34889 ft | 497 kts | 115° |
| 2026-05-08 00:16 | 13.82437 | 100.73618 | 34887 ft | 498 kts | 116° |
| 2026-05-08 00:16 | 13.79294 | 100.79972 | 34884 ft | 499 kts | 116° |
| 2026-05-08 00:17 | 13.76132 | 100.86328 | 34884 ft | 499 kts | 116° |
| 2026-05-08 00:17 | 13.72973 | 100.92681 | 34883 ft | 499 kts | 116° |
| 2026-05-08 00:18 | 13.69808 | 100.99050 | 34881 ft | 500 kts | 116° |
| 2026-05-08 00:18 | 13.66639 | 101.05421 | 34878 ft | 500 kts | 116° |
| 2026-05-08 00:19 | 13.63473 | 101.11783 | 34876 ft | 500 kts | 116° |
| 2026-05-08 00:19 | 13.60328 | 101.18096 | 34878 ft | 499 kts | 116° |
| 2026-05-08 00:20 | 13.57161 | 101.24450 | 34880 ft | 499 kts | 116° |
| 2026-05-08 00:20 | 13.53999 | 101.30792 | 34885 ft | 498 kts | 116° |
| 2026-05-08 00:21 | 13.50838 | 101.37124 | 34878 ft | 498 kts | 116° |
| 2026-05-08 00:21 | 13.48221 | 101.42381 | 34883 ft | 498 kts | 116° |
| 2026-05-08 00:22 | 13.45066 | 101.48726 | 34883 ft | 498 kts | 116° |
| 2026-05-08 00:22 | 13.41397 | 101.56095 | 34884 ft | 499 kts | 116° |
| 2026-05-08 00:23 | 13.38762 | 101.61421 | 34888 ft | 499 kts | 115° |
| 2026-05-08 00:23 | 13.35688 | 101.67806 | 34886 ft | 499 kts | 115° |
| 2026-05-08 00:24 | 13.32615 | 101.74210 | 34887 ft | 500 kts | 115° |
| 2026-05-08 00:24 | 13.29524 | 101.80615 | 34895 ft | 501 kts | 115° |
| 2026-05-08 00:25 | 13.26441 | 101.86992 | 34894 ft | 502 kts | 115° |
| 2026-05-08 00:25 | 13.23331 | 101.93422 | 34896 ft | 503 kts | 115° |
| 2026-05-08 00:26 | 13.20211 | 101.99853 | 34893 ft | 503 kts | 115° |
| 2026-05-08 00:26 | 13.17089 | 102.06280 | 34899 ft | 503 kts | 115° |
| 2026-05-08 00:27 | 13.13960 | 102.12716 | 34900 ft | 504 kts | 115° |
| 2026-05-08 00:27 | 13.10848 | 102.19117 | 34900 ft | 504 kts | 115° |
| 2026-05-08 00:28 | 13.07716 | 102.25557 | 34901 ft | 505 kts | 115° |
| 2026-05-08 00:28 | 13.04578 | 102.32002 | 34896 ft | 505 kts | 115° |
| 2026-05-08 00:29 | 13.01439 | 102.38445 | 34904 ft | 504 kts | 115° |
| 2026-05-08 00:29 | 12.98302 | 102.44880 | 34902 ft | 505 kts | 115° |
| 2026-05-08 00:30 | 12.95070 | 102.51278 | 34900 ft | 506 kts | 119° |
| 2026-05-08 00:30 | 12.91409 | 102.57443 | 34906 ft | 506 kts | 120° |
| 2026-05-08 00:31 | 12.87699 | 102.63593 | 34905 ft | 507 kts | 120° |
| 2026-05-08 00:31 | 12.84007 | 102.69756 | 34904 ft | 507 kts | 120° |
| 2026-05-08 00:32 | 12.80355 | 102.75887 | 34906 ft | 507 kts | 120° |
| 2026-05-08 00:32 | 12.76677 | 102.82064 | 34899 ft | 508 kts | 120° |
| 2026-05-08 00:33 | 12.72995 | 102.88243 | 34911 ft | 508 kts | 120° |
| 2026-05-08 00:33 | 12.69308 | 102.94423 | 34908 ft | 509 kts | 120° |
| 2026-05-08 00:34 | 12.65611 | 103.00615 | 34909 ft | 509 kts | 120° |
| 2026-05-08 00:34 | 12.61915 | 103.06801 | 34908 ft | 509 kts | 120° |
| 2026-05-08 00:35 | 12.58217 | 103.12987 | 34915 ft | 509 kts | 120° |
| 2026-05-08 00:35 | 12.54514 | 103.19178 | 34917 ft | 510 kts | 120° |
| 2026-05-08 00:36 | 12.50801 | 103.25381 | 34918 ft | 511 kts | 120° |
| 2026-05-08 00:36 | 12.47084 | 103.31586 | 34914 ft | 511 kts | 120° |
| 2026-05-08 00:37 | 12.43369 | 103.37784 | 34914 ft | 511 kts | 120° |
| 2026-05-08 00:38 | 12.37785 | 103.47091 | 34922 ft | 510 kts | 121° |
| 2026-05-08 00:38 | 12.34075 | 103.53270 | 34921 ft | 509 kts | 121° |
| 2026-05-08 00:39 | 12.30398 | 103.59392 | 34913 ft | 508 kts | 121° |
| 2026-05-08 00:39 | 12.26699 | 103.65547 | 34926 ft | 507 kts | 121° |
| 2026-05-08 00:40 | 12.23007 | 103.71684 | 34927 ft | 506 kts | 121° |
| 2026-05-08 00:40 | 12.19304 | 103.77811 | 34927 ft | 506 kts | 121° |
| 2026-05-08 00:41 | 12.15607 | 103.83915 | 34928 ft | 505 kts | 121° |
| 2026-05-08 00:41 | 12.11904 | 103.90028 | 34927 ft | 506 kts | 121° |
| 2026-05-08 00:42 | 12.08200 | 103.96144 | 34934 ft | 506 kts | 121° |
| 2026-05-08 00:42 | 12.04490 | 104.02266 | 34935 ft | 507 kts | 121° |
| 2026-05-08 00:43 | 12.00768 | 104.08403 | 34928 ft | 509 kts | 121° |
| 2026-05-08 00:43 | 11.97036 | 104.14554 | 34932 ft | 510 kts | 121° |
| 2026-05-08 00:44 | 11.93311 | 104.20690 | 34930 ft | 512 kts | 121° |
| 2026-05-08 00:44 | 11.89534 | 104.26906 | 34925 ft | 512 kts | 121° |
| 2026-05-08 00:45 | 11.85775 | 104.33075 | 34924 ft | 511 kts | 121° |
| 2026-05-08 00:45 | 11.82046 | 104.39182 | 34917 ft | 510 kts | 121° |
| 2026-05-08 00:46 | 11.78298 | 104.45322 | 34916 ft | 508 kts | 121° |
| 2026-05-08 00:46 | 11.74558 | 104.51446 | 34912 ft | 508 kts | 122° |
| 2026-05-08 00:47 | 11.70821 | 104.57564 | 34915 ft | 507 kts | 122° |
| 2026-05-08 00:47 | 11.67089 | 104.63668 | 34916 ft | 506 kts | 122° |
| 2026-05-08 00:48 | 11.63339 | 104.69798 | 34904 ft | 506 kts | 122° |
| 2026-05-08 00:48 | 11.59633 | 104.75854 | 34908 ft | 506 kts | 122° |
| 2026-05-08 00:49 | 11.55901 | 104.81951 | 34908 ft | 507 kts | 121° |
| 2026-05-08 00:49 | 11.52734 | 104.88362 | 34905 ft | 507 kts | 111° |
| 2026-05-08 00:50 | 11.50183 | 104.95064 | 34909 ft | 507 kts | 110° |
| 2026-05-08 00:50 | 11.47627 | 105.01776 | 34907 ft | 508 kts | 111° |
| 2026-05-08 00:51 | 11.45033 | 105.08481 | 34900 ft | 509 kts | 111° |
| 2026-05-08 00:51 | 11.42418 | 105.15184 | 34902 ft | 509 kts | 111° |
| 2026-05-08 00:52 | 11.39796 | 105.21899 | 34899 ft | 509 kts | 111° |
| 2026-05-08 00:52 | 11.37176 | 105.28608 | 34897 ft | 509 kts | 111° |
| 2026-05-08 00:53 | 11.34569 | 105.35279 | 34898 ft | 510 kts | 111° |
| 2026-05-08 00:53 | 11.31957 | 105.41961 | 34638 ft | 503 kts | 111° |
| 2026-05-08 00:53 | 11.30663 | 105.45269 | 34105 ft | 501 kts | 111° |
| 2026-05-08 00:54 | 11.29377 | 105.48556 | 33541 ft | 496 kts | 111° |
| 2026-05-08 00:54 | 11.28105 | 105.51806 | 32993 ft | 491 kts | 111° |
| 2026-05-08 00:54 | 11.26857 | 105.54994 | 32460 ft | 487 kts | 111° |
| 2026-05-08 00:54 | 11.25606 | 105.58191 | 31934 ft | 483 kts | 111° |
| 2026-05-08 00:55 | 11.24367 | 105.61354 | 31419 ft | 479 kts | 111° |
| 2026-05-08 00:55 | 11.23137 | 105.64491 | 30910 ft | 475 kts | 112° |
| 2026-05-08 00:55 | 11.21909 | 105.67623 | 30381 ft | 472 kts | 112° |
| 2026-05-08 00:55 | 11.20694 | 105.70719 | 29853 ft | 469 kts | 112° |
| 2026-05-08 00:56 | 11.19487 | 105.73796 | 29266 ft | 466 kts | 112° |
| 2026-05-08 00:56 | 11.18288 | 105.76849 | 28722 ft | 462 kts | 112° |
| 2026-05-08 00:56 | 11.17097 | 105.79881 | 28198 ft | 458 kts | 112° |
| 2026-05-08 00:56 | 11.15920 | 105.82879 | 27687 ft | 454 kts | 112° |
| 2026-05-08 00:57 | 11.14753 | 105.85850 | 27183 ft | 450 kts | 112° |
| 2026-05-08 00:57 | 11.13612 | 105.88755 | 26692 ft | 446 kts | 112° |
| 2026-05-08 00:57 | 11.12464 | 105.91675 | 26205 ft | 442 kts | 112° |
| 2026-05-08 00:57 | 11.11322 | 105.94579 | 25713 ft | 439 kts | 112° |
| 2026-05-08 00:58 | 11.10191 | 105.97455 | 25221 ft | 436 kts | 112° |
| 2026-05-08 00:58 | 11.09068 | 106.00312 | 24724 ft | 433 kts | 112° |
| 2026-05-08 00:58 | 11.07951 | 106.03157 | 24238 ft | 430 kts | 112° |
| 2026-05-08 00:58 | 11.06841 | 106.05984 | 23763 ft | 427 kts | 112° |
| 2026-05-08 00:59 | 11.05740 | 106.08785 | 23225 ft | 425 kts | 111° |
| 2026-05-08 00:59 | 11.04647 | 106.11566 | 22707 ft | 421 kts | 111° |
| 2026-05-08 00:59 | 11.03565 | 106.14320 | 22226 ft | 417 kts | 111° |
| 2026-05-08 00:59 | 11.02470 | 106.17030 | 21745 ft | 410 kts | 115° |
| 2026-05-08 01:00 | 11.00933 | 106.19406 | 21286 ft | 407 kts | 133° |
| 2026-05-08 01:00 | 10.98856 | 106.21311 | 20866 ft | 399 kts | 138° |
| 2026-05-08 01:00 | 10.96769 | 106.23158 | 20410 ft | 396 kts | 137° |
| 2026-05-08 01:00 | 10.94708 | 106.25016 | 19976 ft | 394 kts | 137° |
| 2026-05-08 01:01 | 10.92671 | 106.26872 | 19524 ft | 392 kts | 137° |
| 2026-05-08 01:01 | 10.90642 | 106.28729 | 19067 ft | 391 kts | 137° |
| 2026-05-08 01:01 | 10.88622 | 106.30583 | 18617 ft | 389 kts | 137° |
| 2026-05-08 01:01 | 10.86637 | 106.32406 | 18171 ft | 388 kts | 137° |
| 2026-05-08 01:02 | 10.84634 | 106.34246 | 17665 ft | 387 kts | 137° |
| 2026-05-08 01:02 | 10.82647 | 106.36070 | 17279 ft | 383 kts | 136° |
| 2026-05-08 01:02 | 10.80673 | 106.37882 | 16841 ft | 380 kts | 136° |
| 2026-05-08 01:02 | 10.78717 | 106.39677 | 16409 ft | 378 kts | 136° |
| 2026-05-08 01:03 | 10.76768 | 106.41466 | 15984 ft | 376 kts | 136° |
| 2026-05-08 01:03 | 10.74832 | 106.43242 | 15542 ft | 374 kts | 136° |
| 2026-05-08 01:03 | 10.72903 | 106.45010 | 15107 ft | 373 kts | 136° |
| 2026-05-08 01:03 | 10.70980 | 106.46772 | 14681 ft | 372 kts | 137° |
| 2026-05-08 01:04 | 10.69050 | 106.48538 | 14220 ft | 371 kts | 137° |
| 2026-05-08 01:04 | 10.67163 | 106.50264 | 13865 ft | 365 kts | 137° |
| 2026-05-08 01:04 | 10.65322 | 106.51948 | 13549 ft | 350 kts | 137° |
| 2026-05-08 01:04 | 10.63523 | 106.53593 | 13228 ft | 346 kts | 136° |
| 2026-05-08 01:05 | 10.61747 | 106.55220 | 12945 ft | 342 kts | 136° |
| 2026-05-08 01:05 | 10.59987 | 106.56829 | 12670 ft | 339 kts | 136° |
| 2026-05-08 01:05 | 10.58337 | 106.58490 | 12367 ft | 332 kts | 126° |
| 2026-05-08 01:05 | 10.57278 | 106.60568 | 12114 ft | 331 kts | 109° |
| 2026-05-08 01:06 | 10.56749 | 106.62032 | 11953 ft | 335 kts | 110° |
| 2026-05-08 01:06 | 10.55903 | 106.64247 | 11708 ft | 333 kts | 111° |
| 2026-05-08 01:06 | 10.55062 | 106.66373 | 11389 ft | 315 kts | 111° |
| 2026-05-08 01:06 | 10.54264 | 106.68371 | 11113 ft | 296 kts | 111° |
| 2026-05-08 01:07 | 10.53502 | 106.70280 | 10748 ft | 292 kts | 111° |
| 2026-05-08 01:07 | 10.52724 | 106.72230 | 10363 ft | 303 kts | 111° |
| 2026-05-08 01:07 | 10.51935 | 106.74210 | 10087 ft | 297 kts | 111° |
| 2026-05-08 01:07 | 10.51184 | 106.76095 | 9597 ft | 282 kts | 111° |
| 2026-05-08 01:08 | 10.50454 | 106.77926 | 8851 ft | 276 kts | 110° |
| 2026-05-08 01:08 | 10.49752 | 106.79685 | 8327 ft | 265 kts | 110° |
| 2026-05-08 01:08 | 10.49065 | 106.81409 | 7899 ft | 265 kts | 110° |
| 2026-05-08 01:08 | 10.48363 | 106.83169 | 7446 ft | 271 kts | 110° |
| 2026-05-08 01:09 | 10.47896 | 106.84982 | 7112 ft | 259 kts | 89° |
| 2026-05-08 01:09 | 10.48161 | 106.86733 | 7024 ft | 249 kts | 73° |
| 2026-05-08 01:09 | 10.48612 | 106.88463 | 7023 ft | 256 kts | 75° |
| 2026-05-08 01:09 | 10.49044 | 106.90210 | 7010 ft | 254 kts | 75° |
| 2026-05-08 01:10 | 10.49466 | 106.91917 | 6998 ft | 250 kts | 75° |
| 2026-05-08 01:10 | 10.49888 | 106.93622 | 7002 ft | 248 kts | 75° |
| 2026-05-08 01:10 | 10.50310 | 106.95324 | 7008 ft | 249 kts | 75° |
| 2026-05-08 01:10 | 10.50734 | 106.97033 | 7013 ft | 250 kts | 75° |
| 2026-05-08 01:11 | 10.51236 | 106.98724 | 7008 ft | 250 kts | 69° |
| 2026-05-08 01:11 | 10.51891 | 107.00374 | 7012 ft | 251 kts | 67° |
| 2026-05-08 01:11 | 10.52562 | 107.02014 | 7014 ft | 252 kts | 67° |
| 2026-05-08 01:11 | 10.53226 | 107.03667 | 7018 ft | 252 kts | 68° |
| 2026-05-08 01:12 | 10.53880 | 107.05321 | 7014 ft | 253 kts | 68° |
| 2026-05-08 01:12 | 10.54532 | 107.06984 | 7006 ft | 254 kts | 68° |
| 2026-05-08 01:12 | 10.55184 | 107.08653 | 7007 ft | 253 kts | 68° |
| 2026-05-08 01:12 | 10.55874 | 107.10282 | 6999 ft | 248 kts | 58° |
| 2026-05-08 01:13 | 10.56932 | 107.11643 | 7019 ft | 246 kts | 47° |
| 2026-05-08 01:13 | 10.58130 | 107.12914 | 7017 ft | 251 kts | 46° |
| 2026-05-08 01:13 | 10.59333 | 107.14183 | 7022 ft | 253 kts | 46° |
| 2026-05-08 01:13 | 10.60539 | 107.15481 | 7013 ft | 252 kts | 47° |
| 2026-05-08 01:14 | 10.61734 | 107.16784 | 7007 ft | 252 kts | 47° |
| 2026-05-08 01:14 | 10.62926 | 107.18093 | 7004 ft | 251 kts | 47° |
| 2026-05-08 01:14 | 10.64107 | 107.19394 | 7008 ft | 250 kts | 47° |
| 2026-05-08 01:14 | 10.65369 | 107.20578 | 6997 ft | 245 kts | 33° |
| 2026-05-08 01:15 | 10.66875 | 107.21421 | 7025 ft | 251 kts | 27° |
| 2026-05-08 01:15 | 10.68459 | 107.22220 | 7021 ft | 255 kts | 27° |
| 2026-05-08 01:15 | 10.70042 | 107.23035 | 7026 ft | 254 kts | 28° |
| 2026-05-08 01:15 | 10.71610 | 107.23861 | 7013 ft | 253 kts | 28° |
| 2026-05-08 01:16 | 10.73166 | 107.24689 | 7016 ft | 252 kts | 28° |
| 2026-05-08 01:16 | 10.74715 | 107.25514 | 7011 ft | 251 kts | 27° |
| 2026-05-08 01:16 | 10.76336 | 107.26051 | 7012 ft | 247 kts | 12° |
| 2026-05-08 01:16 | 10.78063 | 107.26331 | 7023 ft | 253 kts | 10° |
| 2026-05-08 01:17 | 10.79811 | 107.26601 | 7025 ft | 256 kts | 11° |
| 2026-05-08 01:17 | 10.81570 | 107.26890 | 7022 ft | 255 kts | 11° |
| 2026-05-08 01:17 | 10.83321 | 107.27085 | 7008 ft | 251 kts | 356° |
| 2026-05-08 01:17 | 10.84946 | 107.26519 | 7017 ft | 255 kts | 327° |
| 2026-05-08 01:18 | 10.86167 | 107.25176 | 6944 ft | 267 kts | 300° |
| 2026-05-08 01:18 | 10.86694 | 107.23359 | 6757 ft | 272 kts | 275° |
| 2026-05-08 01:18 | 10.86725 | 107.21443 | 6615 ft | 271 kts | 272° |
| 2026-05-08 01:18 | 10.86734 | 107.19528 | 6446 ft | 270 kts | 272° |
| 2026-05-08 01:19 | 10.86742 | 107.17622 | 6279 ft | 268 kts | 272° |
| 2026-05-08 01:19 | 10.86754 | 107.15739 | 6112 ft | 265 kts | 272° |
| 2026-05-08 01:19 | 10.86768 | 107.13877 | 5953 ft | 262 kts | 272° |
| 2026-05-08 01:19 | 10.86784 | 107.12030 | 5793 ft | 259 kts | 272° |
| 2026-05-08 01:20 | 10.86802 | 107.10209 | 5653 ft | 256 kts | 272° |
| 2026-05-08 01:20 | 10.86811 | 107.08388 | 5497 ft | 258 kts | 272° |
| 2026-05-08 01:20 | 10.86834 | 107.06551 | 5360 ft | 261 kts | 272° |
| 2026-05-08 01:20 | 10.86857 | 107.04698 | 5183 ft | 262 kts | 272° |
| 2026-05-08 01:21 | 10.86880 | 107.02849 | 5101 ft | 259 kts | 272° |
| 2026-05-08 01:21 | 10.86905 | 107.01008 | 4957 ft | 263 kts | 272° |
| 2026-05-08 01:21 | 10.86928 | 106.99145 | 4751 ft | 263 kts | 272° |
| 2026-05-08 01:21 | 10.86950 | 106.97292 | 4584 ft | 260 kts | 272° |
| 2026-05-08 01:22 | 10.86970 | 106.95489 | 4424 ft | 256 kts | 272° |
| 2026-05-08 01:22 | 10.86991 | 106.93685 | 4267 ft | 253 kts | 272° |
| 2026-05-08 01:22 | 10.87011 | 106.91901 | 4122 ft | 251 kts | 272° |
| 2026-05-08 01:22 | 10.87046 | 106.90130 | 3942 ft | 249 kts | 276° |
| 2026-05-08 01:23 | 10.87292 | 106.88381 | 3722 ft | 250 kts | 282° |
| 2026-05-08 01:23 | 10.87608 | 106.86630 | 3509 ft | 251 kts | 281° |
| 2026-05-08 01:23 | 10.87909 | 106.84895 | 3274 ft | 247 kts | 281° |
| 2026-05-08 01:23 | 10.88196 | 106.83189 | 3031 ft | 241 kts | 281° |
| 2026-05-08 01:24 | 10.88304 | 106.81540 | 2754 ft | 229 kts | 255° |
| 2026-05-08 01:24 | 10.87718 | 106.80096 | 2631 ft | 218 kts | 247° |
| 2026-05-08 01:24 | 10.87149 | 106.78675 | 2398 ft | 214 kts | 249° |
| 2026-05-08 01:24 | 10.86623 | 106.77285 | 2242 ft | 209 kts | 249° |
| 2026-05-08 01:25 | 10.86111 | 106.75928 | 2069 ft | 200 kts | 249° |
| 2026-05-08 01:25 | 10.85625 | 106.74638 | 2047 ft | 193 kts | 249° |
| 2026-05-08 01:25 | 10.85150 | 106.73389 | 1719 ft | 190 kts | 248° |
| 2026-05-08 01:25 | 10.84683 | 106.72133 | 1276 ft | 189 kts | 249° |
| 2026-05-08 01:26 | 10.84259 | 106.70919 | 944 ft | 175 kts | 248° |
| 2026-05-08 01:26 | 10.83840 | 106.69810 | 676 ft | 166 kts | 247° |
| 2026-05-08 01:26 | 10.83415 | 106.68726 | 526 ft | 164 kts | 246° |
| 2026-05-08 01:26 | 10.82999 | 106.67649 | 365 ft | 164 kts | 248° |
| 2026-05-08 01:27 | 10.82591 | 106.66577 | 143 ft | 161 kts | 245° |
| 2026-05-08 01:27 | 10.82187 | 106.65535 | 47 ft | 150 kts | 249° |
| 2026-05-08 01:27 | 10.81897 | 106.64763 | 41 ft | 83 kts | 249° |
| 2026-05-08 01:27 | 10.81766 | 106.64438 | 40 ft | 19 kts | 231° |
| 2026-05-08 01:28 | 10.81663 | 106.64348 | 39 ft | 20 kts | 218° |
| 2026-05-08 01:28 | 10.81550 | 106.64296 | 40 ft | 16 kts | 175° |
| 2026-05-08 01:28 | 10.81442 | 106.64331 | 42 ft | 16 kts | 158° |
| 2026-05-08 01:28 | 10.81335 | 106.64373 | 41 ft | 16 kts | 161° |
| 2026-05-08 01:29 | 10.81238 | 106.64430 | 41 ft | 16 kts | 120° |
| 2026-05-08 01:29 | 10.81216 | 106.64536 | 44 ft | 15 kts | 99° |
| 2026-05-08 01:29 | 10.81209 | 106.64639 | 43 ft | 15 kts | 82° |
| 2026-05-08 01:29 | 10.81243 | 106.64740 | 43 ft | 15 kts | 67° |
| 2026-05-08 01:30 | 10.81283 | 106.64840 | 43 ft | 15 kts | 68° |
| 2026-05-08 01:30 | 10.81320 | 106.64940 | 43 ft | 15 kts | 72° |
| 2026-05-08 01:30 | 10.81355 | 106.65041 | 42 ft | 15 kts | 71° |
| 2026-05-08 01:30 | 10.81394 | 106.65139 | 42 ft | 15 kts | 66° |
| 2026-05-08 01:31 | 10.81433 | 106.65239 | 42 ft | 15 kts | 71° |
| 2026-05-08 01:31 | 10.81470 | 106.65341 | 42 ft | 15 kts | 69° |
| 2026-05-08 01:31 | 10.81508 | 106.65440 | 41 ft | 15 kts | 69° |
| 2026-05-08 01:31 | 10.81546 | 106.65540 | 41 ft | 15 kts | 69° |
| 2026-05-08 01:32 | 10.81583 | 106.65640 | 41 ft | 15 kts | 69° |
| 2026-05-08 01:32 | 10.81619 | 106.65734 | 41 ft | 11 kts | 69° |
| 2026-05-08 01:32 | 10.81590 | 106.65792 | 41 ft | 11 kts | 166° |
| 2026-05-08 01:32 | 10.81516 | 106.65790 | 42 ft | 11 kts | 184° |
| 2026-05-08 01:33 | 10.81449 | 106.65787 | 42 ft | 6 kts | 172° |
| 2026-05-08 01:33 | 10.81427 | 106.65810 | 42 ft | 4 kts | 116° |
| 2026-05-08 01:33 | 10.81421 | 106.65839 | 42 ft | 4 kts | 98° |
| 2026-05-08 01:33 | 10.81418 | 106.65868 | 42 ft | 4 kts | 96° |
| 2026-05-08 01:34 | 10.81417 | 106.65872 | 42 ft | 0 kts | 96° |